<?xml version="1.0" encoding="UTF-8" standalone="no" ?><gpx xmlns="http://www.topografix.com/GPX/1/1" xmlns:gpxx="http://www.garmin.com/xmlschemas/GpxExtensions/v3" xmlns:wptx1="http://www.garmin.com/xmlschemas/WaypointExtension/v1" xmlns:gpxtpx="http://www.garmin.com/xmlschemas/TrackPointExtension/v1" creator="GuideVTT.com" version="1.1" xmlns:xsi="http://www.w3.org/2001/XMLSchema-instance" xsi:schemaLocation="http://www.topografix.com/GPX/1/1 http://www.topografix.com/GPX/1/1/gpx.xsd http://www.garmin.com/xmlschemas/GpxExtensions/v3 http://www8.garmin.com/xmlschemas/GpxExtensionsv3.xsd http://www.garmin.com/xmlschemas/WaypointExtension/v1 http://www8.garmin.com/xmlschemas/WaypointExtensionv1.xsd http://www.garmin.com/xmlschemas/TrackPointExtension/v1 http://www.garmin.com/xmlschemas/TrackPointExtensionv1.xsd">
<metadata><link href="http://www.garmin.com"><text>Garmin International</text></link><time>2013-06-22T15:13:50Z</time></metadata>
<trk><name>barillette2009_33km.gpx</name><extensions><gpxx:TrackExtension><gpxx:DisplayColor>Cyan</gpxx:DisplayColor></gpxx:TrackExtension></extensions><trkseg>
<trkpt lat="46.40083313" lon="6.17219114"><ele></ele><time>2015-8-31T13:44:54Z</time></trkpt>
<trkpt lat="46.40083313" lon="6.17219114"><ele></ele><time>2015-8-31T13:44:57Z</time></trkpt>
<trkpt lat="46.40072250" lon="6.17204905"><ele></ele><time>2015-8-31T13:45:0Z</time></trkpt>
<trkpt lat="46.40064621" lon="6.17196417"><ele></ele><time>2015-8-31T13:45:3Z</time></trkpt>
<trkpt lat="46.40055084" lon="6.17185211"><ele></ele><time>2015-8-31T13:45:6Z</time></trkpt>
<trkpt lat="46.40044785" lon="6.17172289"><ele></ele><time>2015-8-31T13:45:9Z</time></trkpt>
<trkpt lat="46.40017700" lon="6.17141104"><ele></ele><time>2015-8-31T13:45:12Z</time></trkpt>
<trkpt lat="46.40006638" lon="6.17129087"><ele></ele><time>2015-8-31T13:45:15Z</time></trkpt>
<trkpt lat="46.39985657" lon="6.17106819"><ele></ele><time>2015-8-31T13:45:18Z</time></trkpt>
<trkpt lat="46.39987564" lon="6.17074680"><ele></ele><time>2015-8-31T13:45:21Z</time></trkpt>
<trkpt lat="46.39997482" lon="6.17060900"><ele></ele><time>2015-8-31T13:45:24Z</time></trkpt>
<trkpt lat="46.40027237" lon="6.16995478"><ele></ele><time>2015-8-31T13:45:27Z</time></trkpt>
<trkpt lat="46.40045547" lon="6.16950512"><ele></ele><time>2015-8-31T13:45:30Z</time></trkpt>
<trkpt lat="46.40039825" lon="6.16924477"><ele></ele><time>2015-8-31T13:45:33Z</time></trkpt>
<trkpt lat="46.39952469" lon="6.16819906"><ele></ele><time>2015-8-31T13:45:36Z</time></trkpt>
<trkpt lat="46.39885330" lon="6.16724777"><ele></ele><time>2015-8-31T13:45:39Z</time></trkpt>
<trkpt lat="46.39873505" lon="6.16705704"><ele></ele><time>2015-8-31T13:45:42Z</time></trkpt>
<trkpt lat="46.39867783" lon="6.16696310"><ele></ele><time>2015-8-31T13:45:45Z</time></trkpt>
<trkpt lat="46.39861679" lon="6.16686916"><ele></ele><time>2015-8-31T13:45:48Z</time></trkpt>
<trkpt lat="46.39791107" lon="6.16578817"><ele></ele><time>2015-8-31T13:45:51Z</time></trkpt>
<trkpt lat="46.39784241" lon="6.16568422"><ele></ele><time>2015-8-31T13:45:54Z</time></trkpt>
<trkpt lat="46.39777374" lon="6.16557884"><ele></ele><time>2015-8-31T13:45:57Z</time></trkpt>
<trkpt lat="46.39718628" lon="6.16476488"><ele></ele><time>2015-8-31T13:46:0Z</time></trkpt>
<trkpt lat="46.39710999" lon="6.16466618"><ele></ele><time>2015-8-31T13:46:3Z</time></trkpt>
<trkpt lat="46.39702988" lon="6.16456795"><ele></ele><time>2015-8-31T13:46:6Z</time></trkpt>
<trkpt lat="46.39694977" lon="6.16447115"><ele></ele><time>2015-8-31T13:46:9Z</time></trkpt>
<trkpt lat="46.39686584" lon="6.16437578"><ele></ele><time>2015-8-31T13:46:12Z</time></trkpt>
<trkpt lat="46.39619064" lon="6.16366291"><ele></ele><time>2015-8-31T13:46:15Z</time></trkpt>
<trkpt lat="46.39575577" lon="6.16321802"><ele></ele><time>2015-8-31T13:46:18Z</time></trkpt>
<trkpt lat="46.39558792" lon="6.16303015"><ele></ele><time>2015-8-31T13:46:21Z</time></trkpt>
<trkpt lat="46.39521027" lon="6.16256809"><ele></ele><time>2015-8-31T13:46:24Z</time></trkpt>
<trkpt lat="46.39508057" lon="6.16239405"><ele></ele><time>2015-8-31T13:46:27Z</time></trkpt>
<trkpt lat="46.39502335" lon="6.16231585"><ele></ele><time>2015-8-31T13:46:30Z</time></trkpt>
<trkpt lat="46.39497375" lon="6.16224718"><ele></ele><time>2015-8-31T13:46:33Z</time></trkpt>
<trkpt lat="46.39488220" lon="6.16212893"><ele></ele><time>2015-8-31T13:46:36Z</time></trkpt>
<trkpt lat="46.39482117" lon="6.16201591"><ele></ele><time>2015-8-31T13:46:39Z</time></trkpt>
<trkpt lat="46.39481354" lon="6.16195393"><ele></ele><time>2015-8-31T13:46:42Z</time></trkpt>
<trkpt lat="46.39486694" lon="6.16185617"><ele></ele><time>2015-8-31T13:46:45Z</time></trkpt>
<trkpt lat="46.39499283" lon="6.16170883"><ele></ele><time>2015-8-31T13:46:48Z</time></trkpt>
<trkpt lat="46.39506531" lon="6.16160488"><ele></ele><time>2015-8-31T13:46:51Z</time></trkpt>
<trkpt lat="46.39582825" lon="6.16066217"><ele></ele><time>2015-8-31T13:46:54Z</time></trkpt>
<trkpt lat="46.39678955" lon="6.15945196"><ele></ele><time>2015-8-31T13:46:57Z</time></trkpt>
<trkpt lat="46.39789581" lon="6.15806913"><ele></ele><time>2015-8-31T13:47:0Z</time></trkpt>
<trkpt lat="46.39852524" lon="6.15729618"><ele></ele><time>2015-8-31T13:47:3Z</time></trkpt>
<trkpt lat="46.39850998" lon="6.15688705"><ele></ele><time>2015-8-31T13:47:6Z</time></trkpt>
<trkpt lat="46.39846802" lon="6.15680218"><ele></ele><time>2015-8-31T13:47:9Z</time></trkpt>
<trkpt lat="46.39763641" lon="6.15544415"><ele></ele><time>2015-8-31T13:47:12Z</time></trkpt>
<trkpt lat="46.39667511" lon="6.15387011"><ele></ele><time>2015-8-31T13:47:15Z</time></trkpt>
<trkpt lat="46.39624405" lon="6.15317202"><ele></ele><time>2015-8-31T13:47:18Z</time></trkpt>
<trkpt lat="46.39576340" lon="6.15236092"><ele></ele><time>2015-8-31T13:47:21Z</time></trkpt>
<trkpt lat="46.39514542" lon="6.15134287"><ele></ele><time>2015-8-31T13:47:24Z</time></trkpt>
<trkpt lat="46.39402771" lon="6.14995623"><ele></ele><time>2015-8-31T13:47:27Z</time></trkpt>
<trkpt lat="46.39327240" lon="6.14899778"><ele></ele><time>2015-8-31T13:47:30Z</time></trkpt>
<trkpt lat="46.39323044" lon="6.14894485"><ele></ele><time>2015-8-31T13:47:33Z</time></trkpt>
<trkpt lat="46.39320374" lon="6.14872313"><ele></ele><time>2015-8-31T13:47:36Z</time></trkpt>
<trkpt lat="46.39335251" lon="6.14848614"><ele></ele><time>2015-8-31T13:47:39Z</time></trkpt>
<trkpt lat="46.39390945" lon="6.14757681"><ele></ele><time>2015-8-31T13:47:42Z</time></trkpt>
<trkpt lat="46.39453888" lon="6.14655876"><ele></ele><time>2015-8-31T13:47:45Z</time></trkpt>
<trkpt lat="46.39487457" lon="6.14601994"><ele></ele><time>2015-8-31T13:47:48Z</time></trkpt>
<trkpt lat="46.39498138" lon="6.14565086"><ele></ele><time>2015-8-31T13:47:51Z</time></trkpt>
<trkpt lat="46.39522934" lon="6.14554024"><ele></ele><time>2015-8-31T13:47:54Z</time></trkpt>
<trkpt lat="46.39568710" lon="6.14553213"><ele></ele><time>2015-8-31T13:47:57Z</time></trkpt>
<trkpt lat="46.39609909" lon="6.14555597"><ele></ele><time>2015-8-31T13:48:0Z</time></trkpt>
<trkpt lat="46.39655685" lon="6.14558220"><ele></ele><time>2015-8-31T13:48:3Z</time></trkpt>
<trkpt lat="46.39687347" lon="6.14555788"><ele></ele><time>2015-8-31T13:48:6Z</time></trkpt>
<trkpt lat="46.39722443" lon="6.14550877"><ele></ele><time>2015-8-31T13:48:9Z</time></trkpt>
<trkpt lat="46.39768219" lon="6.14545822"><ele></ele><time>2015-8-31T13:48:12Z</time></trkpt>
<trkpt lat="46.39812088" lon="6.14539814"><ele></ele><time>2015-8-31T13:48:15Z</time></trkpt>
<trkpt lat="46.39859390" lon="6.14543200"><ele></ele><time>2015-8-31T13:48:18Z</time></trkpt>
<trkpt lat="46.39885712" lon="6.14533901"><ele></ele><time>2015-8-31T13:48:21Z</time></trkpt>
<trkpt lat="46.39893723" lon="6.14522791"><ele></ele><time>2015-8-31T13:48:24Z</time></trkpt>
<trkpt lat="46.39897156" lon="6.14507103"><ele></ele><time>2015-8-31T13:48:27Z</time></trkpt>
<trkpt lat="46.39887619" lon="6.14489603"><ele></ele><time>2015-8-31T13:48:30Z</time></trkpt>
<trkpt lat="46.39860916" lon="6.14430904"><ele></ele><time>2015-8-31T13:48:33Z</time></trkpt>
<trkpt lat="46.39833069" lon="6.14374399"><ele></ele><time>2015-8-31T13:48:36Z</time></trkpt>
<trkpt lat="46.39809418" lon="6.14325094"><ele></ele><time>2015-8-31T13:48:39Z</time></trkpt>
<trkpt lat="46.39782333" lon="6.14269018"><ele></ele><time>2015-8-31T13:48:42Z</time></trkpt>
<trkpt lat="46.39765549" lon="6.14222813"><ele></ele><time>2015-8-31T13:48:45Z</time></trkpt>
<trkpt lat="46.39758301" lon="6.14204121"><ele></ele><time>2015-8-31T13:48:48Z</time></trkpt>
<trkpt lat="46.39752579" lon="6.14185905"><ele></ele><time>2015-8-31T13:48:51Z</time></trkpt>
<trkpt lat="46.39725876" lon="6.14135790"><ele></ele><time>2015-8-31T13:48:54Z</time></trkpt>
<trkpt lat="46.39702606" lon="6.14087915"><ele></ele><time>2015-8-31T13:48:57Z</time></trkpt>
<trkpt lat="46.39680862" lon="6.14048815"><ele></ele><time>2015-8-31T13:49:0Z</time></trkpt>
<trkpt lat="46.39658356" lon="6.13990021"><ele></ele><time>2015-8-31T13:49:3Z</time></trkpt>
<trkpt lat="46.39644241" lon="6.13927794"><ele></ele><time>2015-8-31T13:49:6Z</time></trkpt>
<trkpt lat="46.39631271" lon="6.13879919"><ele></ele><time>2015-8-31T13:49:9Z</time></trkpt>
<trkpt lat="46.39614105" lon="6.13828707"><ele></ele><time>2015-8-31T13:49:12Z</time></trkpt>
<trkpt lat="46.39588547" lon="6.13786221"><ele></ele><time>2015-8-31T13:49:15Z</time></trkpt>
<trkpt lat="46.39583588" lon="6.13770819"><ele></ele><time>2015-8-31T13:49:18Z</time></trkpt>
<trkpt lat="46.39596176" lon="6.13760424"><ele></ele><time>2015-8-31T13:49:21Z</time></trkpt>
<trkpt lat="46.39615631" lon="6.13730001"><ele></ele><time>2015-8-31T13:49:24Z</time></trkpt>
<trkpt lat="46.39625549" lon="6.13699102"><ele></ele><time>2015-8-31T13:49:27Z</time></trkpt>
<trkpt lat="46.39641190" lon="6.13682604"><ele></ele><time>2015-8-31T13:49:30Z</time></trkpt>
<trkpt lat="46.39649963" lon="6.13683701"><ele></ele><time>2015-8-31T13:49:33Z</time></trkpt>
<trkpt lat="46.39657211" lon="6.13692904"><ele></ele><time>2015-8-31T13:49:36Z</time></trkpt>
<trkpt lat="46.39673615" lon="6.13709497"><ele></ele><time>2015-8-31T13:49:39Z</time></trkpt>
<trkpt lat="46.39693069" lon="6.13731718"><ele></ele><time>2015-8-31T13:49:42Z</time></trkpt>
<trkpt lat="46.39717865" lon="6.13760281"><ele></ele><time>2015-8-31T13:49:45Z</time></trkpt>
<trkpt lat="46.39743423" lon="6.13801098"><ele></ele><time>2015-8-31T13:49:48Z</time></trkpt>
<trkpt lat="46.39750671" lon="6.13805008"><ele></ele><time>2015-8-31T13:49:51Z</time></trkpt>
<trkpt lat="46.39760971" lon="6.13814211"><ele></ele><time>2015-8-31T13:49:54Z</time></trkpt>
<trkpt lat="46.39815903" lon="6.13870478"><ele></ele><time>2015-8-31T13:49:57Z</time></trkpt>
<trkpt lat="46.39861298" lon="6.13913298"><ele></ele><time>2015-8-31T13:50:0Z</time></trkpt>
<trkpt lat="46.39901352" lon="6.13957024"><ele></ele><time>2015-8-31T13:50:3Z</time></trkpt>
<trkpt lat="46.39930344" lon="6.13988400"><ele></ele><time>2015-8-31T13:50:6Z</time></trkpt>
<trkpt lat="46.39973831" lon="6.14045191"><ele></ele><time>2015-8-31T13:50:9Z</time></trkpt>
<trkpt lat="46.39981842" lon="6.14052391"><ele></ele><time>2015-8-31T13:50:12Z</time></trkpt>
<trkpt lat="46.40022278" lon="6.14094877"><ele></ele><time>2015-8-31T13:50:15Z</time></trkpt>
<trkpt lat="46.40032959" lon="6.14087915"><ele></ele><time>2015-8-31T13:50:18Z</time></trkpt>
<trkpt lat="46.40029144" lon="6.14078283"><ele></ele><time>2015-8-31T13:50:21Z</time></trkpt>
<trkpt lat="46.40023804" lon="6.14016581"><ele></ele><time>2015-8-31T13:50:24Z</time></trkpt>
<trkpt lat="46.40010452" lon="6.13956881"><ele></ele><time>2015-8-31T13:50:27Z</time></trkpt>
<trkpt lat="46.39998245" lon="6.13926315"><ele></ele><time>2015-8-31T13:50:30Z</time></trkpt>
<trkpt lat="46.39973068" lon="6.13884592"><ele></ele><time>2015-8-31T13:50:33Z</time></trkpt>
<trkpt lat="46.39958954" lon="6.13861084"><ele></ele><time>2015-8-31T13:50:36Z</time></trkpt>
<trkpt lat="46.39964676" lon="6.13845921"><ele></ele><time>2015-8-31T13:50:39Z</time></trkpt>
<trkpt lat="46.39993286" lon="6.13839197"><ele></ele><time>2015-8-31T13:50:42Z</time></trkpt>
<trkpt lat="46.40030670" lon="6.13837481"><ele></ele><time>2015-8-31T13:50:45Z</time></trkpt>
<trkpt lat="46.40060043" lon="6.13852406"><ele></ele><time>2015-8-31T13:50:48Z</time></trkpt>
<trkpt lat="46.40077209" lon="6.13864422"><ele></ele><time>2015-8-31T13:50:51Z</time></trkpt>
<trkpt lat="46.40109634" lon="6.13857794"><ele></ele><time>2015-8-31T13:50:54Z</time></trkpt>
<trkpt lat="46.40135193" lon="6.13864422"><ele></ele><time>2015-8-31T13:50:57Z</time></trkpt>
<trkpt lat="46.40155792" lon="6.13885784"><ele></ele><time>2015-8-31T13:51:0Z</time></trkpt>
<trkpt lat="46.40186691" lon="6.13897085"><ele></ele><time>2015-8-31T13:51:3Z</time></trkpt>
<trkpt lat="46.40206909" lon="6.13870478"><ele></ele><time>2015-8-31T13:51:6Z</time></trkpt>
<trkpt lat="46.40228271" lon="6.13830900"><ele></ele><time>2015-8-31T13:51:9Z</time></trkpt>
<trkpt lat="46.40232086" lon="6.13828707"><ele></ele><time>2015-8-31T13:51:12Z</time></trkpt>
<trkpt lat="46.40262222" lon="6.13861609"><ele></ele><time>2015-8-31T13:51:15Z</time></trkpt>
<trkpt lat="46.40285873" lon="6.13900185"><ele></ele><time>2015-8-31T13:51:18Z</time></trkpt>
<trkpt lat="46.40310287" lon="6.13896990"><ele></ele><time>2015-8-31T13:51:21Z</time></trkpt>
<trkpt lat="46.40323257" lon="6.13867092"><ele></ele><time>2015-8-31T13:51:24Z</time></trkpt>
<trkpt lat="46.40340424" lon="6.13847494"><ele></ele><time>2015-8-31T13:51:27Z</time></trkpt>
<trkpt lat="46.40365219" lon="6.13840294"><ele></ele><time>2015-8-31T13:51:30Z</time></trkpt>
<trkpt lat="46.40393448" lon="6.13830423"><ele></ele><time>2015-8-31T13:51:33Z</time></trkpt>
<trkpt lat="46.40428925" lon="6.13825893"><ele></ele><time>2015-8-31T13:51:36Z</time></trkpt>
<trkpt lat="46.40453339" lon="6.13821220"><ele></ele><time>2015-8-31T13:51:39Z</time></trkpt>
<trkpt lat="46.40480804" lon="6.13790321"><ele></ele><time>2015-8-31T13:51:42Z</time></trkpt>
<trkpt lat="46.40498352" lon="6.13777304"><ele></ele><time>2015-8-31T13:51:45Z</time></trkpt>
<trkpt lat="46.40500259" lon="6.13778305"><ele></ele><time>2015-8-31T13:51:48Z</time></trkpt>
<trkpt lat="46.40511703" lon="6.13793421"><ele></ele><time>2015-8-31T13:51:51Z</time></trkpt>
<trkpt lat="46.40547562" lon="6.13823605"><ele></ele><time>2015-8-31T13:51:54Z</time></trkpt>
<trkpt lat="46.40574646" lon="6.13810396"><ele></ele><time>2015-8-31T13:51:57Z</time></trkpt>
<trkpt lat="46.40597534" lon="6.13786221"><ele></ele><time>2015-8-31T13:52:0Z</time></trkpt>
<trkpt lat="46.40605545" lon="6.13778400"><ele></ele><time>2015-8-31T13:52:3Z</time></trkpt>
<trkpt lat="46.40643311" lon="6.13751221"><ele></ele><time>2015-8-31T13:52:6Z</time></trkpt>
<trkpt lat="46.40659332" lon="6.13733006"><ele></ele><time>2015-8-31T13:52:9Z</time></trkpt>
<trkpt lat="46.40686798" lon="6.13722515"><ele></ele><time>2015-8-31T13:52:12Z</time></trkpt>
<trkpt lat="46.40700531" lon="6.13739586"><ele></ele><time>2015-8-31T13:52:15Z</time></trkpt>
<trkpt lat="46.40703583" lon="6.13755512"><ele></ele><time>2015-8-31T13:52:18Z</time></trkpt>
<trkpt lat="46.40702057" lon="6.13778782"><ele></ele><time>2015-8-31T13:52:21Z</time></trkpt>
<trkpt lat="46.40702438" lon="6.13839006"><ele></ele><time>2015-8-31T13:52:24Z</time></trkpt>
<trkpt lat="46.40705490" lon="6.13859606"><ele></ele><time>2015-8-31T13:52:27Z</time></trkpt>
<trkpt lat="46.40707397" lon="6.13873386"><ele></ele><time>2015-8-31T13:52:30Z</time></trkpt>
<trkpt lat="46.40718079" lon="6.13956022"><ele></ele><time>2015-8-31T13:52:33Z</time></trkpt>
<trkpt lat="46.40715027" lon="6.13980198"><ele></ele><time>2015-8-31T13:52:36Z</time></trkpt>
<trkpt lat="46.40713120" lon="6.14009094"><ele></ele><time>2015-8-31T13:52:39Z</time></trkpt>
<trkpt lat="46.40717316" lon="6.14065218"><ele></ele><time>2015-8-31T13:52:42Z</time></trkpt>
<trkpt lat="46.40723419" lon="6.14092016"><ele></ele><time>2015-8-31T13:52:45Z</time></trkpt>
<trkpt lat="46.40738297" lon="6.14131784"><ele></ele><time>2015-8-31T13:52:48Z</time></trkpt>
<trkpt lat="46.40765381" lon="6.14188814"><ele></ele><time>2015-8-31T13:52:51Z</time></trkpt>
<trkpt lat="46.40766144" lon="6.14243698"><ele></ele><time>2015-8-31T13:52:54Z</time></trkpt>
<trkpt lat="46.40759277" lon="6.14288902"><ele></ele><time>2015-8-31T13:52:57Z</time></trkpt>
<trkpt lat="46.40739822" lon="6.14330482"><ele></ele><time>2015-8-31T13:53:0Z</time></trkpt>
<trkpt lat="46.40743256" lon="6.14374495"><ele></ele><time>2015-8-31T13:53:3Z</time></trkpt>
<trkpt lat="46.40754318" lon="6.14403486"><ele></ele><time>2015-8-31T13:53:6Z</time></trkpt>
<trkpt lat="46.40760040" lon="6.14410210"><ele></ele><time>2015-8-31T13:53:9Z</time></trkpt>
<trkpt lat="46.40732956" lon="6.14473009"><ele></ele><time>2015-8-31T13:53:12Z</time></trkpt>
<trkpt lat="46.40708160" lon="6.14488506"><ele></ele><time>2015-8-31T13:53:15Z</time></trkpt>
<trkpt lat="46.40691757" lon="6.14500713"><ele></ele><time>2015-8-31T13:53:18Z</time></trkpt>
<trkpt lat="46.40653992" lon="6.14531279"><ele></ele><time>2015-8-31T13:53:21Z</time></trkpt>
<trkpt lat="46.40640259" lon="6.14537477"><ele></ele><time>2015-8-31T13:53:24Z</time></trkpt>
<trkpt lat="46.40624619" lon="6.14567423"><ele></ele><time>2015-8-31T13:53:27Z</time></trkpt>
<trkpt lat="46.40615463" lon="6.14607906"><ele></ele><time>2015-8-31T13:53:30Z</time></trkpt>
<trkpt lat="46.40584946" lon="6.14702892"><ele></ele><time>2015-8-31T13:53:33Z</time></trkpt>
<trkpt lat="46.40581131" lon="6.14756107"><ele></ele><time>2015-8-31T13:53:36Z</time></trkpt>
<trkpt lat="46.40554810" lon="6.14748096"><ele></ele><time>2015-8-31T13:53:39Z</time></trkpt>
<trkpt lat="46.40538025" lon="6.14724588"><ele></ele><time>2015-8-31T13:53:42Z</time></trkpt>
<trkpt lat="46.40531540" lon="6.14712715"><ele></ele><time>2015-8-31T13:53:45Z</time></trkpt>
<trkpt lat="46.40501022" lon="6.14686108"><ele></ele><time>2015-8-31T13:53:48Z</time></trkpt>
<trkpt lat="46.40491104" lon="6.14669800"><ele></ele><time>2015-8-31T13:53:51Z</time></trkpt>
<trkpt lat="46.40461349" lon="6.14625692"><ele></ele><time>2015-8-31T13:53:54Z</time></trkpt>
<trkpt lat="46.40435410" lon="6.14600277"><ele></ele><time>2015-8-31T13:53:57Z</time></trkpt>
<trkpt lat="46.40398026" lon="6.14572477"><ele></ele><time>2015-8-31T13:54:0Z</time></trkpt>
<trkpt lat="46.40367126" lon="6.14571905"><ele></ele><time>2015-8-31T13:54:3Z</time></trkpt>
<trkpt lat="46.40344238" lon="6.14593410"><ele></ele><time>2015-8-31T13:54:6Z</time></trkpt>
<trkpt lat="46.40321350" lon="6.14610291"><ele></ele><time>2015-8-31T13:54:9Z</time></trkpt>
<trkpt lat="46.40307999" lon="6.14619207"><ele></ele><time>2015-8-31T13:54:12Z</time></trkpt>
<trkpt lat="46.40299225" lon="6.14617586"><ele></ele><time>2015-8-31T13:54:15Z</time></trkpt>
<trkpt lat="46.40277481" lon="6.14615679"><ele></ele><time>2015-8-31T13:54:18Z</time></trkpt>
<trkpt lat="46.40262222" lon="6.14620876"><ele></ele><time>2015-8-31T13:54:21Z</time></trkpt>
<trkpt lat="46.40222168" lon="6.14623880"><ele></ele><time>2015-8-31T13:54:24Z</time></trkpt>
<trkpt lat="46.40199280" lon="6.14615679"><ele></ele><time>2015-8-31T13:54:27Z</time></trkpt>
<trkpt lat="46.40158463" lon="6.14655495"><ele></ele><time>2015-8-31T13:54:30Z</time></trkpt>
<trkpt lat="46.40110779" lon="6.14723396"><ele></ele><time>2015-8-31T13:54:33Z</time></trkpt>
<trkpt lat="46.40058517" lon="6.14744186"><ele></ele><time>2015-8-31T13:54:36Z</time></trkpt>
<trkpt lat="46.39934540" lon="6.14785910"><ele></ele><time>2015-8-31T13:54:39Z</time></trkpt>
<trkpt lat="46.39889908" lon="6.14810085"><ele></ele><time>2015-8-31T13:54:42Z</time></trkpt>
<trkpt lat="46.39804840" lon="6.14915609"><ele></ele><time>2015-8-31T13:54:45Z</time></trkpt>
<trkpt lat="46.39765930" lon="6.14967680"><ele></ele><time>2015-8-31T13:54:48Z</time></trkpt>
<trkpt lat="46.39756775" lon="6.14983511"><ele></ele><time>2015-8-31T13:54:51Z</time></trkpt>
<trkpt lat="46.39781189" lon="6.15017080"><ele></ele><time>2015-8-31T13:54:54Z</time></trkpt>
<trkpt lat="46.39829636" lon="6.15080595"><ele></ele><time>2015-8-31T13:54:57Z</time></trkpt>
<trkpt lat="46.39900589" lon="6.15156698"><ele></ele><time>2015-8-31T13:55:0Z</time></trkpt>
<trkpt lat="46.39964676" lon="6.15199423"><ele></ele><time>2015-8-31T13:55:3Z</time></trkpt>
<trkpt lat="46.39977264" lon="6.15209913"><ele></ele><time>2015-8-31T13:55:6Z</time></trkpt>
<trkpt lat="46.40060043" lon="6.15284109"><ele></ele><time>2015-8-31T13:55:9Z</time></trkpt>
<trkpt lat="46.40133667" lon="6.15379000"><ele></ele><time>2015-8-31T13:55:12Z</time></trkpt>
<trkpt lat="46.40183640" lon="6.15461111"><ele></ele><time>2015-8-31T13:55:15Z</time></trkpt>
<trkpt lat="46.40202713" lon="6.15511894"><ele></ele><time>2015-8-31T13:55:18Z</time></trkpt>
<trkpt lat="46.40251541" lon="6.15608978"><ele></ele><time>2015-8-31T13:55:21Z</time></trkpt>
<trkpt lat="46.40296173" lon="6.15688801"><ele></ele><time>2015-8-31T13:55:24Z</time></trkpt>
<trkpt lat="46.40346527" lon="6.15782404"><ele></ele><time>2015-8-31T13:55:27Z</time></trkpt>
<trkpt lat="46.40405655" lon="6.15926790"><ele></ele><time>2015-8-31T13:55:30Z</time></trkpt>
<trkpt lat="46.40494919" lon="6.16083479"><ele></ele><time>2015-8-31T13:55:33Z</time></trkpt>
<trkpt lat="46.40579605" lon="6.16212416"><ele></ele><time>2015-8-31T13:55:36Z</time></trkpt>
<trkpt lat="46.40625381" lon="6.16259289"><ele></ele><time>2015-8-31T13:55:39Z</time></trkpt>
<trkpt lat="46.40633774" lon="6.16310310"><ele></ele><time>2015-8-31T13:55:42Z</time></trkpt>
<trkpt lat="46.40536499" lon="6.16426420"><ele></ele><time>2015-8-31T13:55:45Z</time></trkpt>
<trkpt lat="46.40481567" lon="6.16487312"><ele></ele><time>2015-8-31T13:55:48Z</time></trkpt>
<trkpt lat="46.40484619" lon="6.16542196"><ele></ele><time>2015-8-31T13:55:51Z</time></trkpt>
<trkpt lat="46.40490341" lon="6.16573477"><ele></ele><time>2015-8-31T13:55:54Z</time></trkpt>
<trkpt lat="46.40494156" lon="6.16619682"><ele></ele><time>2015-8-31T13:55:57Z</time></trkpt>
<trkpt lat="46.40534210" lon="6.16752720"><ele></ele><time>2015-8-31T13:56:0Z</time></trkpt>
<trkpt lat="46.40519714" lon="6.16804314"><ele></ele><time>2015-8-31T13:56:3Z</time></trkpt>
<trkpt lat="46.40492630" lon="6.16840696"><ele></ele><time>2015-8-31T13:56:6Z</time></trkpt>
<trkpt lat="46.40407944" lon="6.16955090"><ele></ele><time>2015-8-31T13:56:9Z</time></trkpt>
<trkpt lat="46.40325928" lon="6.17047024"><ele></ele><time>2015-8-31T13:56:12Z</time></trkpt>
<trkpt lat="46.40240479" lon="6.17166901"><ele></ele><time>2015-8-31T13:56:15Z</time></trkpt>
<trkpt lat="46.40172577" lon="6.17283821"><ele></ele><time>2015-8-31T13:56:18Z</time></trkpt>
<trkpt lat="46.40133667" lon="6.17288685"><ele></ele><time>2015-8-31T13:56:21Z</time></trkpt>
<trkpt lat="46.40045929" lon="6.17170095"><ele></ele><time>2015-8-31T13:56:24Z</time></trkpt>
<trkpt lat="46.39995193" lon="6.17110491"><ele></ele><time>2015-8-31T13:56:27Z</time></trkpt>
<trkpt lat="46.39991760" lon="6.17074299"><ele></ele><time>2015-8-31T13:56:30Z</time></trkpt>
<trkpt lat="46.40043259" lon="6.16965914"><ele></ele><time>2015-8-31T13:56:33Z</time></trkpt>
<trkpt lat="46.40036392" lon="6.16920614"><ele></ele><time>2015-8-31T13:56:36Z</time></trkpt>
<trkpt lat="46.39922333" lon="6.16779280"><ele></ele><time>2015-8-31T13:56:39Z</time></trkpt>
<trkpt lat="46.39810181" lon="6.16610098"><ele></ele><time>2015-8-31T13:56:42Z</time></trkpt>
<trkpt lat="46.39674377" lon="6.16425419"><ele></ele><time>2015-8-31T13:56:45Z</time></trkpt>
<trkpt lat="46.39537430" lon="6.16279221"><ele></ele><time>2015-8-31T13:56:48Z</time></trkpt>
<trkpt lat="46.39489365" lon="6.16218710"><ele></ele><time>2015-8-31T13:56:51Z</time></trkpt>
<trkpt lat="46.39492798" lon="6.16178083"><ele></ele><time>2015-8-31T13:56:54Z</time></trkpt>
<trkpt lat="46.39585876" lon="6.16065598"><ele></ele><time>2015-8-31T13:56:57Z</time></trkpt>
<trkpt lat="46.39684296" lon="6.15941477"><ele></ele><time>2015-8-31T13:57:0Z</time></trkpt>
<trkpt lat="46.39778519" lon="6.15824604"><ele></ele><time>2015-8-31T13:57:3Z</time></trkpt>
<trkpt lat="46.39853287" lon="6.15730810"><ele></ele><time>2015-8-31T13:57:6Z</time></trkpt>
<trkpt lat="46.39849091" lon="6.15685606"><ele></ele><time>2015-8-31T13:57:9Z</time></trkpt>
<trkpt lat="46.39720535" lon="6.15473604"><ele></ele><time>2015-8-31T13:57:12Z</time></trkpt>
<trkpt lat="46.39612579" lon="6.15295506"><ele></ele><time>2015-8-31T13:57:15Z</time></trkpt>
<trkpt lat="46.39550018" lon="6.15190506"><ele></ele><time>2015-8-31T13:57:18Z</time></trkpt>
<trkpt lat="46.39459610" lon="6.15067577"><ele></ele><time>2015-8-31T13:57:21Z</time></trkpt>
<trkpt lat="46.39336395" lon="6.14911985"><ele></ele><time>2015-8-31T13:57:24Z</time></trkpt>
<trkpt lat="46.39323807" lon="6.14896584"><ele></ele><time>2015-8-31T13:57:27Z</time></trkpt>
<trkpt lat="46.39324570" lon="6.14869118"><ele></ele><time>2015-8-31T13:57:30Z</time></trkpt>
<trkpt lat="46.39378738" lon="6.14781094"><ele></ele><time>2015-8-31T13:57:33Z</time></trkpt>
<trkpt lat="46.39427185" lon="6.14703083"><ele></ele><time>2015-8-31T13:57:36Z</time></trkpt>
<trkpt lat="46.39472198" lon="6.14630890"><ele></ele><time>2015-8-31T13:57:39Z</time></trkpt>
<trkpt lat="46.39499664" lon="6.14563608"><ele></ele><time>2015-8-31T13:57:42Z</time></trkpt>
<trkpt lat="46.39529037" lon="6.14554787"><ele></ele><time>2015-8-31T13:57:45Z</time></trkpt>
<trkpt lat="46.39570618" lon="6.14557314"><ele></ele><time>2015-8-31T13:57:48Z</time></trkpt>
<trkpt lat="46.39619446" lon="6.14560699"><ele></ele><time>2015-8-31T13:57:51Z</time></trkpt>
<trkpt lat="46.39666367" lon="6.14561176"><ele></ele><time>2015-8-31T13:57:54Z</time></trkpt>
<trkpt lat="46.39715576" lon="6.14555883"><ele></ele><time>2015-8-31T13:57:57Z</time></trkpt>
<trkpt lat="46.39764023" lon="6.14547920"><ele></ele><time>2015-8-31T13:58:0Z</time></trkpt>
<trkpt lat="46.39809036" lon="6.14542484"><ele></ele><time>2015-8-31T13:58:3Z</time></trkpt>
<trkpt lat="46.39861298" lon="6.14538717"><ele></ele><time>2015-8-31T13:58:6Z</time></trkpt>
<trkpt lat="46.39886475" lon="6.14540100"><ele></ele><time>2015-8-31T13:58:9Z</time></trkpt>
<trkpt lat="46.39889145" lon="6.14499998"><ele></ele><time>2015-8-31T13:58:12Z</time></trkpt>
<trkpt lat="46.39865875" lon="6.14444017"><ele></ele><time>2015-8-31T13:58:15Z</time></trkpt>
<trkpt lat="46.39840698" lon="6.14393616"><ele></ele><time>2015-8-31T13:58:18Z</time></trkpt>
<trkpt lat="46.39818954" lon="6.14347887"><ele></ele><time>2015-8-31T13:58:21Z</time></trkpt>
<trkpt lat="46.39798737" lon="6.14301920"><ele></ele><time>2015-8-31T13:58:24Z</time></trkpt>
<trkpt lat="46.39777374" lon="6.14259291"><ele></ele><time>2015-8-31T13:58:27Z</time></trkpt>
<trkpt lat="46.39757919" lon="6.14217281"><ele></ele><time>2015-8-31T13:58:30Z</time></trkpt>
<trkpt lat="46.39737701" lon="6.14168596"><ele></ele><time>2015-8-31T13:58:33Z</time></trkpt>
<trkpt lat="46.39720154" lon="6.14129496"><ele></ele><time>2015-8-31T13:58:36Z</time></trkpt>
<trkpt lat="46.39703369" lon="6.14089012"><ele></ele><time>2015-8-31T13:58:39Z</time></trkpt>
<trkpt lat="46.39684677" lon="6.14054680"><ele></ele><time>2015-8-31T13:58:42Z</time></trkpt>
<trkpt lat="46.39669800" lon="6.14023590"><ele></ele><time>2015-8-31T13:58:45Z</time></trkpt>
<trkpt lat="46.39664078" lon="6.13987494"><ele></ele><time>2015-8-31T13:58:48Z</time></trkpt>
<trkpt lat="46.39636612" lon="6.13923120"><ele></ele><time>2015-8-31T13:58:51Z</time></trkpt>
<trkpt lat="46.39620590" lon="6.13874006"><ele></ele><time>2015-8-31T13:58:54Z</time></trkpt>
<trkpt lat="46.39607620" lon="6.13831615"><ele></ele><time>2015-8-31T13:58:57Z</time></trkpt>
<trkpt lat="46.39588928" lon="6.13787079"><ele></ele><time>2015-8-31T13:59:0Z</time></trkpt>
<trkpt lat="46.39585495" lon="6.13772678"><ele></ele><time>2015-8-31T13:59:3Z</time></trkpt>
<trkpt lat="46.39609528" lon="6.13744497"><ele></ele><time>2015-8-31T13:59:6Z</time></trkpt>
<trkpt lat="46.39610672" lon="6.13742113"><ele></ele><time>2015-8-31T13:59:9Z</time></trkpt>
<trkpt lat="46.39616013" lon="6.13728189"><ele></ele><time>2015-8-31T13:59:12Z</time></trkpt>
<trkpt lat="46.39618683" lon="6.13721800"><ele></ele><time>2015-8-31T13:59:15Z</time></trkpt>
<trkpt lat="46.39622116" lon="6.13705206"><ele></ele><time>2015-8-31T13:59:18Z</time></trkpt>
<trkpt lat="46.39632416" lon="6.13686180"><ele></ele><time>2015-8-31T13:59:21Z</time></trkpt>
<trkpt lat="46.39636230" lon="6.13683891"><ele></ele><time>2015-8-31T13:59:24Z</time></trkpt>
<trkpt lat="46.39659882" lon="6.13692808"><ele></ele><time>2015-8-31T13:59:27Z</time></trkpt>
<trkpt lat="46.39685059" lon="6.13722086"><ele></ele><time>2015-8-31T13:59:30Z</time></trkpt>
<trkpt lat="46.39730072" lon="6.13773680"><ele></ele><time>2015-8-31T13:59:33Z</time></trkpt>
<trkpt lat="46.39760971" lon="6.13808298"><ele></ele><time>2015-8-31T13:59:36Z</time></trkpt>
<trkpt lat="46.39786148" lon="6.13838005"><ele></ele><time>2015-8-31T13:59:39Z</time></trkpt>
<trkpt lat="46.39799118" lon="6.13853788"><ele></ele><time>2015-8-31T13:59:42Z</time></trkpt>
<trkpt lat="46.39819336" lon="6.13877010"><ele></ele><time>2015-8-31T13:59:45Z</time></trkpt>
<trkpt lat="46.39873886" lon="6.13932610"><ele></ele><time>2015-8-31T13:59:48Z</time></trkpt>
<trkpt lat="46.39921188" lon="6.13987398"><ele></ele><time>2015-8-31T13:59:51Z</time></trkpt>
<trkpt lat="46.39941788" lon="6.14012718"><ele></ele><time>2015-8-31T13:59:54Z</time></trkpt>
<trkpt lat="46.39971542" lon="6.14046621"><ele></ele><time>2015-8-31T13:59:57Z</time></trkpt>
<trkpt lat="46.40011597" lon="6.14092588"><ele></ele><time>2015-8-31T14:0:0Z</time></trkpt>
<trkpt lat="46.40026093" lon="6.14088392"><ele></ele><time>2015-8-31T14:0:3Z</time></trkpt>
<trkpt lat="46.40021515" lon="6.14074898"><ele></ele><time>2015-8-31T14:0:6Z</time></trkpt>
<trkpt lat="46.40018463" lon="6.14026117"><ele></ele><time>2015-8-31T14:0:9Z</time></trkpt>
<trkpt lat="46.40019226" lon="6.13994980"><ele></ele><time>2015-8-31T14:0:12Z</time></trkpt>
<trkpt lat="46.40018082" lon="6.13974190"><ele></ele><time>2015-8-31T14:0:15Z</time></trkpt>
<trkpt lat="46.40013123" lon="6.13952780"><ele></ele><time>2015-8-31T14:0:18Z</time></trkpt>
<trkpt lat="46.40008926" lon="6.13940001"><ele></ele><time>2015-8-31T14:0:21Z</time></trkpt>
<trkpt lat="46.39993286" lon="6.13902712"><ele></ele><time>2015-8-31T14:0:24Z</time></trkpt>
<trkpt lat="46.39965057" lon="6.13854122"><ele></ele><time>2015-8-31T14:0:27Z</time></trkpt>
<trkpt lat="46.39964294" lon="6.13847494"><ele></ele><time>2015-8-31T14:0:30Z</time></trkpt>
<trkpt lat="46.39989471" lon="6.13837385"><ele></ele><time>2015-8-31T14:0:33Z</time></trkpt>
<trkpt lat="46.40022659" lon="6.13830996"><ele></ele><time>2015-8-31T14:0:36Z</time></trkpt>
<trkpt lat="46.40044403" lon="6.13841295"><ele></ele><time>2015-8-31T14:0:39Z</time></trkpt>
<trkpt lat="46.40070724" lon="6.13858223"><ele></ele><time>2015-8-31T14:0:42Z</time></trkpt>
<trkpt lat="46.40104675" lon="6.13855410"><ele></ele><time>2015-8-31T14:0:45Z</time></trkpt>
<trkpt lat="46.40128708" lon="6.13860416"><ele></ele><time>2015-8-31T14:0:48Z</time></trkpt>
<trkpt lat="46.40150070" lon="6.13885880"><ele></ele><time>2015-8-31T14:0:51Z</time></trkpt>
<trkpt lat="46.40176010" lon="6.13899517"><ele></ele><time>2015-8-31T14:0:54Z</time></trkpt>
<trkpt lat="46.40204239" lon="6.13878679"><ele></ele><time>2015-8-31T14:0:57Z</time></trkpt>
<trkpt lat="46.40210724" lon="6.13870192"><ele></ele><time>2015-8-31T14:1:0Z</time></trkpt>
<trkpt lat="46.40238571" lon="6.13829899"><ele></ele><time>2015-8-31T14:1:3Z</time></trkpt>
<trkpt lat="46.40258789" lon="6.13844109"><ele></ele><time>2015-8-31T14:1:6Z</time></trkpt>
<trkpt lat="46.40261841" lon="6.13849401"><ele></ele><time>2015-8-31T14:1:9Z</time></trkpt>
<trkpt lat="46.40268326" lon="6.13871288"><ele></ele><time>2015-8-31T14:1:12Z</time></trkpt>
<trkpt lat="46.40287018" lon="6.13904190"><ele></ele><time>2015-8-31T14:1:15Z</time></trkpt>
<trkpt lat="46.40307999" lon="6.13899899"><ele></ele><time>2015-8-31T14:1:18Z</time></trkpt>
<trkpt lat="46.40331650" lon="6.13857698"><ele></ele><time>2015-8-31T14:1:21Z</time></trkpt>
<trkpt lat="46.40361786" lon="6.13840103"><ele></ele><time>2015-8-31T14:1:24Z</time></trkpt>
<trkpt lat="46.40390396" lon="6.13832378"><ele></ele><time>2015-8-31T14:1:27Z</time></trkpt>
<trkpt lat="46.40419388" lon="6.13822079"><ele></ele><time>2015-8-31T14:1:30Z</time></trkpt>
<trkpt lat="46.40447235" lon="6.13819790"><ele></ele><time>2015-8-31T14:1:33Z</time></trkpt>
<trkpt lat="46.40453339" lon="6.13812780"><ele></ele><time>2015-8-31T14:1:36Z</time></trkpt>
<trkpt lat="46.40456772" lon="6.13808393"><ele></ele><time>2015-8-31T14:1:39Z</time></trkpt>
<trkpt lat="46.40464020" lon="6.13801003"><ele></ele><time>2015-8-31T14:1:42Z</time></trkpt>
<trkpt lat="46.40472031" lon="6.13786316"><ele></ele><time>2015-8-31T14:1:45Z</time></trkpt>
<trkpt lat="46.40504074" lon="6.13785982"><ele></ele><time>2015-8-31T14:1:48Z</time></trkpt>
<trkpt lat="46.40527344" lon="6.13818216"><ele></ele><time>2015-8-31T14:1:51Z</time></trkpt>
<trkpt lat="46.40554810" lon="6.13819504"><ele></ele><time>2015-8-31T14:1:54Z</time></trkpt>
<trkpt lat="46.40588379" lon="6.13797808"><ele></ele><time>2015-8-31T14:1:57Z</time></trkpt>
<trkpt lat="46.40612030" lon="6.13775396"><ele></ele><time>2015-8-31T14:2:0Z</time></trkpt>
<trkpt lat="46.40628815" lon="6.13760996"><ele></ele><time>2015-8-31T14:2:3Z</time></trkpt>
<trkpt lat="46.40653610" lon="6.13738823"><ele></ele><time>2015-8-31T14:2:6Z</time></trkpt>
<trkpt lat="46.40681076" lon="6.13720989"><ele></ele><time>2015-8-31T14:2:9Z</time></trkpt>
<trkpt lat="46.40700531" lon="6.13742208"><ele></ele><time>2015-8-31T14:2:12Z</time></trkpt>
<trkpt lat="46.40702820" lon="6.13752317"><ele></ele><time>2015-8-31T14:2:15Z</time></trkpt>
<trkpt lat="46.40704727" lon="6.13773394"><ele></ele><time>2015-8-31T14:2:18Z</time></trkpt>
<trkpt lat="46.40703201" lon="6.13788223"><ele></ele><time>2015-8-31T14:2:21Z</time></trkpt>
<trkpt lat="46.40706253" lon="6.13806581"><ele></ele><time>2015-8-31T14:2:24Z</time></trkpt>
<trkpt lat="46.40717697" lon="6.13844204"><ele></ele><time>2015-8-31T14:2:27Z</time></trkpt>
<trkpt lat="46.40734482" lon="6.13853788"><ele></ele><time>2015-8-31T14:2:30Z</time></trkpt>
<trkpt lat="46.40740967" lon="6.13862991"><ele></ele><time>2015-8-31T14:2:33Z</time></trkpt>
<trkpt lat="46.40762711" lon="6.13886309"><ele></ele><time>2015-8-31T14:2:36Z</time></trkpt>
<trkpt lat="46.40800476" lon="6.13906384"><ele></ele><time>2015-8-31T14:2:39Z</time></trkpt>
<trkpt lat="46.40815735" lon="6.13919401"><ele></ele><time>2015-8-31T14:2:42Z</time></trkpt>
<trkpt lat="46.40842438" lon="6.13936520"><ele></ele><time>2015-8-31T14:2:45Z</time></trkpt>
<trkpt lat="46.40851974" lon="6.13939810"><ele></ele><time>2015-8-31T14:2:48Z</time></trkpt>
<trkpt lat="46.40889359" lon="6.13945389"><ele></ele><time>2015-8-31T14:2:51Z</time></trkpt>
<trkpt lat="46.40922165" lon="6.13949013"><ele></ele><time>2015-8-31T14:2:54Z</time></trkpt>
<trkpt lat="46.40943909" lon="6.13946581"><ele></ele><time>2015-8-31T14:2:57Z</time></trkpt>
<trkpt lat="46.40958405" lon="6.13944197"><ele></ele><time>2015-8-31T14:3:0Z</time></trkpt>
<trkpt lat="46.40994263" lon="6.13969278"><ele></ele><time>2015-8-31T14:3:3Z</time></trkpt>
<trkpt lat="46.41022873" lon="6.13982677"><ele></ele><time>2015-8-31T14:3:6Z</time></trkpt>
<trkpt lat="46.41034317" lon="6.13998985"><ele></ele><time>2015-8-31T14:3:9Z</time></trkpt>
<trkpt lat="46.41046143" lon="6.14012098"><ele></ele><time>2015-8-31T14:3:12Z</time></trkpt>
<trkpt lat="46.41078186" lon="6.14033699"><ele></ele><time>2015-8-31T14:3:15Z</time></trkpt>
<trkpt lat="46.41107941" lon="6.14040899"><ele></ele><time>2015-8-31T14:3:18Z</time></trkpt>
<trkpt lat="46.41136551" lon="6.14051104"><ele></ele><time>2015-8-31T14:3:21Z</time></trkpt>
<trkpt lat="46.41167068" lon="6.14091778"><ele></ele><time>2015-8-31T14:3:24Z</time></trkpt>
<trkpt lat="46.41188049" lon="6.14121819"><ele></ele><time>2015-8-31T14:3:27Z</time></trkpt>
<trkpt lat="46.41202927" lon="6.14147186"><ele></ele><time>2015-8-31T14:3:30Z</time></trkpt>
<trkpt lat="46.41210556" lon="6.14160395"><ele></ele><time>2015-8-31T14:3:33Z</time></trkpt>
<trkpt lat="46.41226959" lon="6.14183521"><ele></ele><time>2015-8-31T14:3:36Z</time></trkpt>
<trkpt lat="46.41241837" lon="6.14207792"><ele></ele><time>2015-8-31T14:3:39Z</time></trkpt>
<trkpt lat="46.41249084" lon="6.14220619"><ele></ele><time>2015-8-31T14:3:42Z</time></trkpt>
<trkpt lat="46.41269302" lon="6.14240122"><ele></ele><time>2015-8-31T14:3:45Z</time></trkpt>
<trkpt lat="46.41283798" lon="6.14245319"><ele></ele><time>2015-8-31T14:3:48Z</time></trkpt>
<trkpt lat="46.41302109" lon="6.14294577"><ele></ele><time>2015-8-31T14:3:51Z</time></trkpt>
<trkpt lat="46.41314316" lon="6.14341402"><ele></ele><time>2015-8-31T14:3:54Z</time></trkpt>
<trkpt lat="46.41376114" lon="6.14468908"><ele></ele><time>2015-8-31T14:3:57Z</time></trkpt>
<trkpt lat="46.41396713" lon="6.14509392"><ele></ele><time>2015-8-31T14:4:0Z</time></trkpt>
<trkpt lat="46.41413879" lon="6.14521980"><ele></ele><time>2015-8-31T14:4:3Z</time></trkpt>
<trkpt lat="46.41431808" lon="6.14541817"><ele></ele><time>2015-8-31T14:4:6Z</time></trkpt>
<trkpt lat="46.41438675" lon="6.14552879"><ele></ele><time>2015-8-31T14:4:9Z</time></trkpt>
<trkpt lat="46.41448212" lon="6.14588881"><ele></ele><time>2015-8-31T14:4:12Z</time></trkpt>
<trkpt lat="46.41443634" lon="6.14639997"><ele></ele><time>2015-8-31T14:4:15Z</time></trkpt>
<trkpt lat="46.41455841" lon="6.14759207"><ele></ele><time>2015-8-31T14:4:18Z</time></trkpt>
<trkpt lat="46.41465378" lon="6.14805794"><ele></ele><time>2015-8-31T14:4:21Z</time></trkpt>
<trkpt lat="46.41479492" lon="6.14844704"><ele></ele><time>2015-8-31T14:4:24Z</time></trkpt>
<trkpt lat="46.41489029" lon="6.14881611"><ele></ele><time>2015-8-31T14:4:27Z</time></trkpt>
<trkpt lat="46.41499329" lon="6.14903021"><ele></ele><time>2015-8-31T14:4:30Z</time></trkpt>
<trkpt lat="46.41518021" lon="6.14910603"><ele></ele><time>2015-8-31T14:4:33Z</time></trkpt>
<trkpt lat="46.41560364" lon="6.14966106"><ele></ele><time>2015-8-31T14:4:36Z</time></trkpt>
<trkpt lat="46.41574860" lon="6.14981318"><ele></ele><time>2015-8-31T14:4:39Z</time></trkpt>
<trkpt lat="46.41592789" lon="6.14996386"><ele></ele><time>2015-8-31T14:4:42Z</time></trkpt>
<trkpt lat="46.41646194" lon="6.15027523"><ele></ele><time>2015-8-31T14:4:45Z</time></trkpt>
<trkpt lat="46.41677475" lon="6.15046978"><ele></ele><time>2015-8-31T14:4:48Z</time></trkpt>
<trkpt lat="46.41694641" lon="6.15056610"><ele></ele><time>2015-8-31T14:4:51Z</time></trkpt>
<trkpt lat="46.41704559" lon="6.15072584"><ele></ele><time>2015-8-31T14:4:54Z</time></trkpt>
<trkpt lat="46.41704941" lon="6.15107822"><ele></ele><time>2015-8-31T14:4:57Z</time></trkpt>
<trkpt lat="46.41704941" lon="6.15143204"><ele></ele><time>2015-8-31T14:5:0Z</time></trkpt>
<trkpt lat="46.41701126" lon="6.15174818"><ele></ele><time>2015-8-31T14:5:3Z</time></trkpt>
<trkpt lat="46.41699219" lon="6.15243721"><ele></ele><time>2015-8-31T14:5:6Z</time></trkpt>
<trkpt lat="46.41703796" lon="6.15274906"><ele></ele><time>2015-8-31T14:5:9Z</time></trkpt>
<trkpt lat="46.41717911" lon="6.15406513"><ele></ele><time>2015-8-31T14:5:12Z</time></trkpt>
<trkpt lat="46.41731262" lon="6.15445423"><ele></ele><time>2015-8-31T14:5:15Z</time></trkpt>
<trkpt lat="46.41730881" lon="6.15463591"><ele></ele><time>2015-8-31T14:5:18Z</time></trkpt>
<trkpt lat="46.41711044" lon="6.15487289"><ele></ele><time>2015-8-31T14:5:21Z</time></trkpt>
<trkpt lat="46.41673660" lon="6.15527678"><ele></ele><time>2015-8-31T14:5:24Z</time></trkpt>
<trkpt lat="46.41647720" lon="6.15551901"><ele></ele><time>2015-8-31T14:5:27Z</time></trkpt>
<trkpt lat="46.41619110" lon="6.15586281"><ele></ele><time>2015-8-31T14:5:30Z</time></trkpt>
<trkpt lat="46.41549683" lon="6.15621185"><ele></ele><time>2015-8-31T14:5:33Z</time></trkpt>
<trkpt lat="46.41503525" lon="6.15643406"><ele></ele><time>2015-8-31T14:5:36Z</time></trkpt>
<trkpt lat="46.41485596" lon="6.15685081"><ele></ele><time>2015-8-31T14:5:39Z</time></trkpt>
<trkpt lat="46.41487885" lon="6.15749121"><ele></ele><time>2015-8-31T14:5:42Z</time></trkpt>
<trkpt lat="46.41508102" lon="6.15750122"><ele></ele><time>2015-8-31T14:5:45Z</time></trkpt>
<trkpt lat="46.41511536" lon="6.15749121"><ele></ele><time>2015-8-31T14:5:48Z</time></trkpt>
<trkpt lat="46.41543198" lon="6.15749598"><ele></ele><time>2015-8-31T14:5:51Z</time></trkpt>
<trkpt lat="46.41568756" lon="6.15766382"><ele></ele><time>2015-8-31T14:5:54Z</time></trkpt>
<trkpt lat="46.41595459" lon="6.15776682"><ele></ele><time>2015-8-31T14:5:57Z</time></trkpt>
<trkpt lat="46.41622162" lon="6.15794086"><ele></ele><time>2015-8-31T14:6:0Z</time></trkpt>
<trkpt lat="46.41659927" lon="6.15815210"><ele></ele><time>2015-8-31T14:6:3Z</time></trkpt>
<trkpt lat="46.41704941" lon="6.15841007"><ele></ele><time>2015-8-31T14:6:6Z</time></trkpt>
<trkpt lat="46.41755676" lon="6.15855885"><ele></ele><time>2015-8-31T14:6:9Z</time></trkpt>
<trkpt lat="46.41809464" lon="6.15849113"><ele></ele><time>2015-8-31T14:6:12Z</time></trkpt>
<trkpt lat="46.41849136" lon="6.15843391"><ele></ele><time>2015-8-31T14:6:15Z</time></trkpt>
<trkpt lat="46.41885376" lon="6.15863514"><ele></ele><time>2015-8-31T14:6:18Z</time></trkpt>
<trkpt lat="46.41927719" lon="6.15920782"><ele></ele><time>2015-8-31T14:6:21Z</time></trkpt>
<trkpt lat="46.41959763" lon="6.15970993"><ele></ele><time>2015-8-31T14:6:24Z</time></trkpt>
<trkpt lat="46.41990662" lon="6.15977001"><ele></ele><time>2015-8-31T14:6:27Z</time></trkpt>
<trkpt lat="46.42032623" lon="6.15982723"><ele></ele><time>2015-8-31T14:6:30Z</time></trkpt>
<trkpt lat="46.42060089" lon="6.16002083"><ele></ele><time>2015-8-31T14:6:33Z</time></trkpt>
<trkpt lat="46.42091751" lon="6.16015720"><ele></ele><time>2015-8-31T14:6:36Z</time></trkpt>
<trkpt lat="46.42122269" lon="6.16023111"><ele></ele><time>2015-8-31T14:6:39Z</time></trkpt>
<trkpt lat="46.42142868" lon="6.16051197"><ele></ele><time>2015-8-31T14:6:42Z</time></trkpt>
<trkpt lat="46.42177963" lon="6.16062307"><ele></ele><time>2015-8-31T14:6:45Z</time></trkpt>
<trkpt lat="46.42216873" lon="6.16056299"><ele></ele><time>2015-8-31T14:6:48Z</time></trkpt>
<trkpt lat="46.42243576" lon="6.16052723"><ele></ele><time>2015-8-31T14:6:51Z</time></trkpt>
<trkpt lat="46.42275620" lon="6.16079283"><ele></ele><time>2015-8-31T14:6:54Z</time></trkpt>
<trkpt lat="46.42308807" lon="6.16116381"><ele></ele><time>2015-8-31T14:6:57Z</time></trkpt>
<trkpt lat="46.42302322" lon="6.16134310"><ele></ele><time>2015-8-31T14:7:0Z</time></trkpt>
<trkpt lat="46.42289352" lon="6.16141510"><ele></ele><time>2015-8-31T14:7:3Z</time></trkpt>
<trkpt lat="46.42234421" lon="6.16194296"><ele></ele><time>2015-8-31T14:7:6Z</time></trkpt>
<trkpt lat="46.42231369" lon="6.16204023"><ele></ele><time>2015-8-31T14:7:9Z</time></trkpt>
<trkpt lat="46.42186737" lon="6.16237116"><ele></ele><time>2015-8-31T14:7:12Z</time></trkpt>
<trkpt lat="46.42120361" lon="6.16270924"><ele></ele><time>2015-8-31T14:7:15Z</time></trkpt>
<trkpt lat="46.42067719" lon="6.16322184"><ele></ele><time>2015-8-31T14:7:18Z</time></trkpt>
<trkpt lat="46.42018127" lon="6.16387510"><ele></ele><time>2015-8-31T14:7:21Z</time></trkpt>
<trkpt lat="46.42006302" lon="6.16402912"><ele></ele><time>2015-8-31T14:7:24Z</time></trkpt>
<trkpt lat="46.41956329" lon="6.16435719"><ele></ele><time>2015-8-31T14:7:27Z</time></trkpt>
<trkpt lat="46.41930389" lon="6.16472006"><ele></ele><time>2015-8-31T14:7:30Z</time></trkpt>
<trkpt lat="46.41903305" lon="6.16524792"><ele></ele><time>2015-8-31T14:7:33Z</time></trkpt>
<trkpt lat="46.41884995" lon="6.16568184"><ele></ele><time>2015-8-31T14:7:36Z</time></trkpt>
<trkpt lat="46.41851044" lon="6.16579914"><ele></ele><time>2015-8-31T14:7:39Z</time></trkpt>
<trkpt lat="46.41817856" lon="6.16593790"><ele></ele><time>2015-8-31T14:7:42Z</time></trkpt>
<trkpt lat="46.41776657" lon="6.16626501"><ele></ele><time>2015-8-31T14:7:45Z</time></trkpt>
<trkpt lat="46.41744995" lon="6.16632891"><ele></ele><time>2015-8-31T14:7:48Z</time></trkpt>
<trkpt lat="46.41709137" lon="6.16655493"><ele></ele><time>2015-8-31T14:7:51Z</time></trkpt>
<trkpt lat="46.41667557" lon="6.16678476"><ele></ele><time>2015-8-31T14:7:54Z</time></trkpt>
<trkpt lat="46.41656113" lon="6.16688681"><ele></ele><time>2015-8-31T14:7:57Z</time></trkpt>
<trkpt lat="46.41646576" lon="6.16700697"><ele></ele><time>2015-8-31T14:8:0Z</time></trkpt>
<trkpt lat="46.41635132" lon="6.16722298"><ele></ele><time>2015-8-31T14:8:3Z</time></trkpt>
<trkpt lat="46.41624451" lon="6.16739321"><ele></ele><time>2015-8-31T14:8:6Z</time></trkpt>
<trkpt lat="46.41571808" lon="6.16778803"><ele></ele><time>2015-8-31T14:8:9Z</time></trkpt>
<trkpt lat="46.41552353" lon="6.16803598"><ele></ele><time>2015-8-31T14:8:12Z</time></trkpt>
<trkpt lat="46.41521454" lon="6.16903496"><ele></ele><time>2015-8-31T14:8:15Z</time></trkpt>
<trkpt lat="46.41502380" lon="6.16965580"><ele></ele><time>2015-8-31T14:8:18Z</time></trkpt>
<trkpt lat="46.41526031" lon="6.17017698"><ele></ele><time>2015-8-31T14:8:21Z</time></trkpt>
<trkpt lat="46.41545868" lon="6.17020607"><ele></ele><time>2015-8-31T14:8:24Z</time></trkpt>
<trkpt lat="46.41590500" lon="6.17045879"><ele></ele><time>2015-8-31T14:8:27Z</time></trkpt>
<trkpt lat="46.41605377" lon="6.17076111"><ele></ele><time>2015-8-31T14:8:30Z</time></trkpt>
<trkpt lat="46.41625595" lon="6.17077780"><ele></ele><time>2015-8-31T14:8:33Z</time></trkpt>
<trkpt lat="46.41639709" lon="6.17077923"><ele></ele><time>2015-8-31T14:8:36Z</time></trkpt>
<trkpt lat="46.41656113" lon="6.17066097"><ele></ele><time>2015-8-31T14:8:39Z</time></trkpt>
<trkpt lat="46.41667938" lon="6.17051220"><ele></ele><time>2015-8-31T14:8:42Z</time></trkpt>
<trkpt lat="46.41720581" lon="6.17064524"><ele></ele><time>2015-8-31T14:8:45Z</time></trkpt>
<trkpt lat="46.41736221" lon="6.17066002"><ele></ele><time>2015-8-31T14:8:48Z</time></trkpt>
<trkpt lat="46.41753006" lon="6.17077923"><ele></ele><time>2015-8-31T14:8:51Z</time></trkpt>
<trkpt lat="46.41787338" lon="6.17143679"><ele></ele><time>2015-8-31T14:8:54Z</time></trkpt>
<trkpt lat="46.41791916" lon="6.17171288"><ele></ele><time>2015-8-31T14:8:57Z</time></trkpt>
<trkpt lat="46.41801071" lon="6.17198801"><ele></ele><time>2015-8-31T14:9:0Z</time></trkpt>
<trkpt lat="46.41818619" lon="6.17226219"><ele></ele><time>2015-8-31T14:9:3Z</time></trkpt>
<trkpt lat="46.41835022" lon="6.17250490"><ele></ele><time>2015-8-31T14:9:6Z</time></trkpt>
<trkpt lat="46.41867828" lon="6.17288303"><ele></ele><time>2015-8-31T14:9:9Z</time></trkpt>
<trkpt lat="46.41875076" lon="6.17300415"><ele></ele><time>2015-8-31T14:9:12Z</time></trkpt>
<trkpt lat="46.41911316" lon="6.17339802"><ele></ele><time>2015-8-31T14:9:15Z</time></trkpt>
<trkpt lat="46.41954803" lon="6.17397785"><ele></ele><time>2015-8-31T14:9:18Z</time></trkpt>
<trkpt lat="46.41968536" lon="6.17394304"><ele></ele><time>2015-8-31T14:9:21Z</time></trkpt>
<trkpt lat="46.41973114" lon="6.17379379"><ele></ele><time>2015-8-31T14:9:24Z</time></trkpt>
<trkpt lat="46.41982269" lon="6.17372513"><ele></ele><time>2015-8-31T14:9:27Z</time></trkpt>
<trkpt lat="46.42015839" lon="6.17358494"><ele></ele><time>2015-8-31T14:9:30Z</time></trkpt>
<trkpt lat="46.42046356" lon="6.17348623"><ele></ele><time>2015-8-31T14:9:33Z</time></trkpt>
<trkpt lat="46.42074203" lon="6.17339087"><ele></ele><time>2015-8-31T14:9:36Z</time></trkpt>
<trkpt lat="46.42100143" lon="6.17308187"><ele></ele><time>2015-8-31T14:9:39Z</time></trkpt>
<trkpt lat="46.42117691" lon="6.17295980"><ele></ele><time>2015-8-31T14:9:42Z</time></trkpt>
<trkpt lat="46.42139053" lon="6.17292976"><ele></ele><time>2015-8-31T14:9:45Z</time></trkpt>
<trkpt lat="46.42143631" lon="6.17293501"><ele></ele><time>2015-8-31T14:9:48Z</time></trkpt>
<trkpt lat="46.42158890" lon="6.17298889"><ele></ele><time>2015-8-31T14:9:51Z</time></trkpt>
<trkpt lat="46.42189789" lon="6.17310715"><ele></ele><time>2015-8-31T14:9:54Z</time></trkpt>
<trkpt lat="46.42219543" lon="6.17315292"><ele></ele><time>2015-8-31T14:9:57Z</time></trkpt>
<trkpt lat="46.42255020" lon="6.17327309"><ele></ele><time>2015-8-31T14:10:0Z</time></trkpt>
<trkpt lat="46.42283249" lon="6.17315388"><ele></ele><time>2015-8-31T14:10:3Z</time></trkpt>
<trkpt lat="46.42309189" lon="6.17296505"><ele></ele><time>2015-8-31T14:10:6Z</time></trkpt>
<trkpt lat="46.42337418" lon="6.17283392"><ele></ele><time>2015-8-31T14:10:9Z</time></trkpt>
<trkpt lat="46.42366409" lon="6.17283201"><ele></ele><time>2015-8-31T14:10:12Z</time></trkpt>
<trkpt lat="46.42388916" lon="6.17303801"><ele></ele><time>2015-8-31T14:10:15Z</time></trkpt>
<trkpt lat="46.42422104" lon="6.17326212"><ele></ele><time>2015-8-31T14:10:18Z</time></trkpt>
<trkpt lat="46.42440796" lon="6.17333794"><ele></ele><time>2015-8-31T14:10:21Z</time></trkpt>
<trkpt lat="46.42464447" lon="6.17357397"><ele></ele><time>2015-8-31T14:10:24Z</time></trkpt>
<trkpt lat="46.42490387" lon="6.17385483"><ele></ele><time>2015-8-31T14:10:27Z</time></trkpt>
<trkpt lat="46.42495728" lon="6.17390108"><ele></ele><time>2015-8-31T14:10:30Z</time></trkpt>
<trkpt lat="46.42503357" lon="6.17385912"><ele></ele><time>2015-8-31T14:10:33Z</time></trkpt>
<trkpt lat="46.42501831" lon="6.17378998"><ele></ele><time>2015-8-31T14:10:36Z</time></trkpt>
<trkpt lat="46.42493057" lon="6.17373896"><ele></ele><time>2015-8-31T14:10:39Z</time></trkpt>
<trkpt lat="46.42497253" lon="6.17364407"><ele></ele><time>2015-8-31T14:10:42Z</time></trkpt>
<trkpt lat="46.42517090" lon="6.17312479"><ele></ele><time>2015-8-31T14:10:45Z</time></trkpt>
<trkpt lat="46.42518234" lon="6.17303705"><ele></ele><time>2015-8-31T14:10:48Z</time></trkpt>
<trkpt lat="46.42521667" lon="6.17282915"><ele></ele><time>2015-8-31T14:10:51Z</time></trkpt>
<trkpt lat="46.42533112" lon="6.17252493"><ele></ele><time>2015-8-31T14:10:54Z</time></trkpt>
<trkpt lat="46.42538071" lon="6.17240477"><ele></ele><time>2015-8-31T14:10:57Z</time></trkpt>
<trkpt lat="46.42544174" lon="6.17232895"><ele></ele><time>2015-8-31T14:11:0Z</time></trkpt>
<trkpt lat="46.42562485" lon="6.17210484"><ele></ele><time>2015-8-31T14:11:3Z</time></trkpt>
<trkpt lat="46.42571259" lon="6.17203617"><ele></ele><time>2015-8-31T14:11:6Z</time></trkpt>
<trkpt lat="46.42583847" lon="6.17185593"><ele></ele><time>2015-8-31T14:11:9Z</time></trkpt>
<trkpt lat="46.42602921" lon="6.17157602"><ele></ele><time>2015-8-31T14:11:12Z</time></trkpt>
<trkpt lat="46.42624283" lon="6.17130613"><ele></ele><time>2015-8-31T14:11:15Z</time></trkpt>
<trkpt lat="46.42649078" lon="6.17108107"><ele></ele><time>2015-8-31T14:11:18Z</time></trkpt>
<trkpt lat="46.42671204" lon="6.17078209"><ele></ele><time>2015-8-31T14:11:21Z</time></trkpt>
<trkpt lat="46.42685699" lon="6.17061996"><ele></ele><time>2015-8-31T14:11:24Z</time></trkpt>
<trkpt lat="46.42716217" lon="6.17029905"><ele></ele><time>2015-8-31T14:11:27Z</time></trkpt>
<trkpt lat="46.42739105" lon="6.16994381"><ele></ele><time>2015-8-31T14:11:30Z</time></trkpt>
<trkpt lat="46.42761230" lon="6.16966391"><ele></ele><time>2015-8-31T14:11:33Z</time></trkpt>
<trkpt lat="46.42770004" lon="6.16953516"><ele></ele><time>2015-8-31T14:11:36Z</time></trkpt>
<trkpt lat="46.42789841" lon="6.16917706"><ele></ele><time>2015-8-31T14:11:39Z</time></trkpt>
<trkpt lat="46.42807770" lon="6.16891384"><ele></ele><time>2015-8-31T14:11:42Z</time></trkpt>
<trkpt lat="46.42818832" lon="6.16867113"><ele></ele><time>2015-8-31T14:11:45Z</time></trkpt>
<trkpt lat="46.42824173" lon="6.16854477"><ele></ele><time>2015-8-31T14:11:48Z</time></trkpt>
<trkpt lat="46.42841339" lon="6.16825199"><ele></ele><time>2015-8-31T14:11:51Z</time></trkpt>
<trkpt lat="46.42845917" lon="6.16816282"><ele></ele><time>2015-8-31T14:11:54Z</time></trkpt>
<trkpt lat="46.42845917" lon="6.16813087"><ele></ele><time>2015-8-31T14:11:57Z</time></trkpt>
<trkpt lat="46.42847061" lon="6.16810513"><ele></ele><time>2015-8-31T14:12:0Z</time></trkpt>
<trkpt lat="46.42849350" lon="6.16809082"><ele></ele><time>2015-8-31T14:12:3Z</time></trkpt>
<trkpt lat="46.42864990" lon="6.16803980"><ele></ele><time>2015-8-31T14:12:6Z</time></trkpt>
<trkpt lat="46.42875290" lon="6.16799307"><ele></ele><time>2015-8-31T14:12:9Z</time></trkpt>
<trkpt lat="46.42884827" lon="6.16789818"><ele></ele><time>2015-8-31T14:12:12Z</time></trkpt>
<trkpt lat="46.42888641" lon="6.16783714"><ele></ele><time>2015-8-31T14:12:15Z</time></trkpt>
<trkpt lat="46.42905807" lon="6.16753817"><ele></ele><time>2015-8-31T14:12:18Z</time></trkpt>
<trkpt lat="46.42915726" lon="6.16730404"><ele></ele><time>2015-8-31T14:12:21Z</time></trkpt>
<trkpt lat="46.42923355" lon="6.16712284"><ele></ele><time>2015-8-31T14:12:24Z</time></trkpt>
<trkpt lat="46.42929840" lon="6.16691208"><ele></ele><time>2015-8-31T14:12:27Z</time></trkpt>
<trkpt lat="46.42934036" lon="6.16686106"><ele></ele><time>2015-8-31T14:12:30Z</time></trkpt>
<trkpt lat="46.42947388" lon="6.16673613"><ele></ele><time>2015-8-31T14:12:33Z</time></trkpt>
<trkpt lat="46.42961121" lon="6.16657877"><ele></ele><time>2015-8-31T14:12:36Z</time></trkpt>
<trkpt lat="46.42967606" lon="6.16646290"><ele></ele><time>2015-8-31T14:12:39Z</time></trkpt>
<trkpt lat="46.42977142" lon="6.16617584"><ele></ele><time>2015-8-31T14:12:42Z</time></trkpt>
<trkpt lat="46.42992401" lon="6.16589594"><ele></ele><time>2015-8-31T14:12:45Z</time></trkpt>
<trkpt lat="46.43006516" lon="6.16569710"><ele></ele><time>2015-8-31T14:12:48Z</time></trkpt>
<trkpt lat="46.43022919" lon="6.16541719"><ele></ele><time>2015-8-31T14:12:51Z</time></trkpt>
<trkpt lat="46.43035889" lon="6.16507578"><ele></ele><time>2015-8-31T14:12:54Z</time></trkpt>
<trkpt lat="46.43038177" lon="6.16502285"><ele></ele><time>2015-8-31T14:12:57Z</time></trkpt>
<trkpt lat="46.43041992" lon="6.16490221"><ele></ele><time>2015-8-31T14:13:0Z</time></trkpt>
<trkpt lat="46.43053436" lon="6.16462088"><ele></ele><time>2015-8-31T14:13:3Z</time></trkpt>
<trkpt lat="46.43053818" lon="6.16459322"><ele></ele><time>2015-8-31T14:13:6Z</time></trkpt>
<trkpt lat="46.43055344" lon="6.16452503"><ele></ele><time>2015-8-31T14:13:9Z</time></trkpt>
<trkpt lat="46.43061066" lon="6.16441584"><ele></ele><time>2015-8-31T14:13:12Z</time></trkpt>
<trkpt lat="46.43063354" lon="6.16438007"><ele></ele><time>2015-8-31T14:13:15Z</time></trkpt>
<trkpt lat="46.43067932" lon="6.16401100"><ele></ele><time>2015-8-31T14:13:18Z</time></trkpt>
<trkpt lat="46.43063736" lon="6.16352797"><ele></ele><time>2015-8-31T14:13:21Z</time></trkpt>
<trkpt lat="46.43060303" lon="6.16333389"><ele></ele><time>2015-8-31T14:13:24Z</time></trkpt>
<trkpt lat="46.43058014" lon="6.16321278"><ele></ele><time>2015-8-31T14:13:27Z</time></trkpt>
<trkpt lat="46.43044662" lon="6.16293716"><ele></ele><time>2015-8-31T14:13:30Z</time></trkpt>
<trkpt lat="46.43014526" lon="6.16306400"><ele></ele><time>2015-8-31T14:13:33Z</time></trkpt>
<trkpt lat="46.42980957" lon="6.16316986"><ele></ele><time>2015-8-31T14:13:36Z</time></trkpt>
<trkpt lat="46.42950058" lon="6.16333294"><ele></ele><time>2015-8-31T14:13:39Z</time></trkpt>
<trkpt lat="46.42908859" lon="6.16343498"><ele></ele><time>2015-8-31T14:13:42Z</time></trkpt>
<trkpt lat="46.42886353" lon="6.16382313"><ele></ele><time>2015-8-31T14:13:45Z</time></trkpt>
<trkpt lat="46.42843246" lon="6.16396809"><ele></ele><time>2015-8-31T14:13:48Z</time></trkpt>
<trkpt lat="46.42811966" lon="6.16413784"><ele></ele><time>2015-8-31T14:13:51Z</time></trkpt>
<trkpt lat="46.42771530" lon="6.16390419"><ele></ele><time>2015-8-31T14:13:54Z</time></trkpt>
<trkpt lat="46.42740631" lon="6.16355896"><ele></ele><time>2015-8-31T14:13:57Z</time></trkpt>
<trkpt lat="46.42703247" lon="6.16309690"><ele></ele><time>2015-8-31T14:14:0Z</time></trkpt>
<trkpt lat="46.42682266" lon="6.16272020"><ele></ele><time>2015-8-31T14:14:3Z</time></trkpt>
<trkpt lat="46.42678833" lon="6.16251278"><ele></ele><time>2015-8-31T14:14:6Z</time></trkpt>
<trkpt lat="46.42677689" lon="6.16238880"><ele></ele><time>2015-8-31T14:14:9Z</time></trkpt>
<trkpt lat="46.42673492" lon="6.16222620"><ele></ele><time>2015-8-31T14:14:12Z</time></trkpt>
<trkpt lat="46.42654419" lon="6.16168785"><ele></ele><time>2015-8-31T14:14:15Z</time></trkpt>
<trkpt lat="46.42645264" lon="6.16101217"><ele></ele><time>2015-8-31T14:14:18Z</time></trkpt>
<trkpt lat="46.42646790" lon="6.16095591"><ele></ele><time>2015-8-31T14:14:21Z</time></trkpt>
<trkpt lat="46.42663574" lon="6.16075802"><ele></ele><time>2015-8-31T14:14:24Z</time></trkpt>
<trkpt lat="46.42686462" lon="6.16061401"><ele></ele><time>2015-8-31T14:14:27Z</time></trkpt>
<trkpt lat="46.42708969" lon="6.16010380"><ele></ele><time>2015-8-31T14:14:30Z</time></trkpt>
<trkpt lat="46.42712784" lon="6.15929222"><ele></ele><time>2015-8-31T14:14:33Z</time></trkpt>
<trkpt lat="46.42712021" lon="6.15838003"><ele></ele><time>2015-8-31T14:14:36Z</time></trkpt>
<trkpt lat="46.42677307" lon="6.15834522"><ele></ele><time>2015-8-31T14:14:39Z</time></trkpt>
<trkpt lat="46.42662048" lon="6.15845490"><ele></ele><time>2015-8-31T14:14:42Z</time></trkpt>
<trkpt lat="46.42603683" lon="6.15891600"><ele></ele><time>2015-8-31T14:14:45Z</time></trkpt>
<trkpt lat="46.42556763" lon="6.15900993"><ele></ele><time>2015-8-31T14:14:48Z</time></trkpt>
<trkpt lat="46.42525482" lon="6.15886116"><ele></ele><time>2015-8-31T14:14:51Z</time></trkpt>
<trkpt lat="46.42459106" lon="6.15829182"><ele></ele><time>2015-8-31T14:14:54Z</time></trkpt>
<trkpt lat="46.42453766" lon="6.15805101"><ele></ele><time>2015-8-31T14:14:57Z</time></trkpt>
<trkpt lat="46.42442322" lon="6.15771484"><ele></ele><time>2015-8-31T14:15:0Z</time></trkpt>
<trkpt lat="46.42436218" lon="6.15705919"><ele></ele><time>2015-8-31T14:15:3Z</time></trkpt>
<trkpt lat="46.42444229" lon="6.15685415"><ele></ele><time>2015-8-31T14:15:6Z</time></trkpt>
<trkpt lat="46.42436600" lon="6.15646219"><ele></ele><time>2015-8-31T14:15:9Z</time></trkpt>
<trkpt lat="46.42430878" lon="6.15647221"><ele></ele><time>2015-8-31T14:15:12Z</time></trkpt>
<trkpt lat="46.42370987" lon="6.15647078"><ele></ele><time>2015-8-31T14:15:15Z</time></trkpt>
<trkpt lat="46.42335129" lon="6.15622997"><ele></ele><time>2015-8-31T14:15:18Z</time></trkpt>
<trkpt lat="46.42316818" lon="6.15592289"><ele></ele><time>2015-8-31T14:15:21Z</time></trkpt>
<trkpt lat="46.42293167" lon="6.15570593"><ele></ele><time>2015-8-31T14:15:24Z</time></trkpt>
<trkpt lat="46.42284012" lon="6.15566015"><ele></ele><time>2015-8-31T14:15:27Z</time></trkpt>
<trkpt lat="46.42257309" lon="6.15548420"><ele></ele><time>2015-8-31T14:15:30Z</time></trkpt>
<trkpt lat="46.42229843" lon="6.15530777"><ele></ele><time>2015-8-31T14:15:33Z</time></trkpt>
<trkpt lat="46.42156982" lon="6.15488100"><ele></ele><time>2015-8-31T14:15:36Z</time></trkpt>
<trkpt lat="46.42144012" lon="6.15470791"><ele></ele><time>2015-8-31T14:15:39Z</time></trkpt>
<trkpt lat="46.42118835" lon="6.15450001"><ele></ele><time>2015-8-31T14:15:42Z</time></trkpt>
<trkpt lat="46.42110443" lon="6.15445518"><ele></ele><time>2015-8-31T14:15:45Z</time></trkpt>
<trkpt lat="46.42103577" lon="6.15405989"><ele></ele><time>2015-8-31T14:15:48Z</time></trkpt>
<trkpt lat="46.42103958" lon="6.15368414"><ele></ele><time>2015-8-31T14:15:51Z</time></trkpt>
<trkpt lat="46.42085648" lon="6.15323877"><ele></ele><time>2015-8-31T14:15:54Z</time></trkpt>
<trkpt lat="46.42084885" lon="6.15287590"><ele></ele><time>2015-8-31T14:15:57Z</time></trkpt>
<trkpt lat="46.42091751" lon="6.15251589"><ele></ele><time>2015-8-31T14:16:0Z</time></trkpt>
<trkpt lat="46.42099762" lon="6.15214491"><ele></ele><time>2015-8-31T14:16:3Z</time></trkpt>
<trkpt lat="46.42118454" lon="6.15214109"><ele></ele><time>2015-8-31T14:16:6Z</time></trkpt>
<trkpt lat="46.42123032" lon="6.15225077"><ele></ele><time>2015-8-31T14:16:9Z</time></trkpt>
<trkpt lat="46.42125702" lon="6.15231419"><ele></ele><time>2015-8-31T14:16:12Z</time></trkpt>
<trkpt lat="46.42142868" lon="6.15219212"><ele></ele><time>2015-8-31T14:16:15Z</time></trkpt>
<trkpt lat="46.42137146" lon="6.15194798"><ele></ele><time>2015-8-31T14:16:18Z</time></trkpt>
<trkpt lat="46.42131042" lon="6.15172720"><ele></ele><time>2015-8-31T14:16:21Z</time></trkpt>
<trkpt lat="46.42129135" lon="6.15163422"><ele></ele><time>2015-8-31T14:16:24Z</time></trkpt>
<trkpt lat="46.42129135" lon="6.15159082"><ele></ele><time>2015-8-31T14:16:27Z</time></trkpt>
<trkpt lat="46.42126083" lon="6.15140295"><ele></ele><time>2015-8-31T14:16:30Z</time></trkpt>
<trkpt lat="46.42125320" lon="6.15135479"><ele></ele><time>2015-8-31T14:16:33Z</time></trkpt>
<trkpt lat="46.42115784" lon="6.15109777"><ele></ele><time>2015-8-31T14:16:36Z</time></trkpt>
<trkpt lat="46.42107391" lon="6.15089512"><ele></ele><time>2015-8-31T14:16:39Z</time></trkpt>
<trkpt lat="46.42107010" lon="6.15077019"><ele></ele><time>2015-8-31T14:16:42Z</time></trkpt>
<trkpt lat="46.42107391" lon="6.15072012"><ele></ele><time>2015-8-31T14:16:45Z</time></trkpt>
<trkpt lat="46.42108536" lon="6.15064621"><ele></ele><time>2015-8-31T14:16:48Z</time></trkpt>
<trkpt lat="46.42111588" lon="6.15029621"><ele></ele><time>2015-8-31T14:16:51Z</time></trkpt>
<trkpt lat="46.42118073" lon="6.15007782"><ele></ele><time>2015-8-31T14:16:54Z</time></trkpt>
<trkpt lat="46.42124557" lon="6.15007305"><ele></ele><time>2015-8-31T14:16:57Z</time></trkpt>
<trkpt lat="46.42126846" lon="6.15011978"><ele></ele><time>2015-8-31T14:17:0Z</time></trkpt>
<trkpt lat="46.42127609" lon="6.15016985"><ele></ele><time>2015-8-31T14:17:3Z</time></trkpt>
<trkpt lat="46.42140198" lon="6.15050793"><ele></ele><time>2015-8-31T14:17:6Z</time></trkpt>
<trkpt lat="46.42142487" lon="6.15052891"><ele></ele><time>2015-8-31T14:17:9Z</time></trkpt>
<trkpt lat="46.42145538" lon="6.15052891"><ele></ele><time>2015-8-31T14:17:12Z</time></trkpt>
<trkpt lat="46.42171097" lon="6.15043116"><ele></ele><time>2015-8-31T14:17:15Z</time></trkpt>
<trkpt lat="46.42188263" lon="6.15058804"><ele></ele><time>2015-8-31T14:17:18Z</time></trkpt>
<trkpt lat="46.42207718" lon="6.15083122"><ele></ele><time>2015-8-31T14:17:21Z</time></trkpt>
<trkpt lat="46.42223358" lon="6.15109777"><ele></ele><time>2015-8-31T14:17:24Z</time></trkpt>
<trkpt lat="46.42236328" lon="6.15136480"><ele></ele><time>2015-8-31T14:17:27Z</time></trkpt>
<trkpt lat="46.42238998" lon="6.15143490"><ele></ele><time>2015-8-31T14:17:30Z</time></trkpt>
<trkpt lat="46.42253494" lon="6.15175676"><ele></ele><time>2015-8-31T14:17:33Z</time></trkpt>
<trkpt lat="46.42271042" lon="6.15201998"><ele></ele><time>2015-8-31T14:17:36Z</time></trkpt>
<trkpt lat="46.42298508" lon="6.15211582"><ele></ele><time>2015-8-31T14:17:39Z</time></trkpt>
<trkpt lat="46.42329025" lon="6.15202713"><ele></ele><time>2015-8-31T14:17:42Z</time></trkpt>
<trkpt lat="46.42349625" lon="6.15190887"><ele></ele><time>2015-8-31T14:17:45Z</time></trkpt>
<trkpt lat="46.42366409" lon="6.15186977"><ele></ele><time>2015-8-31T14:17:48Z</time></trkpt>
<trkpt lat="46.42375565" lon="6.15189123"><ele></ele><time>2015-8-31T14:17:51Z</time></trkpt>
<trkpt lat="46.42379761" lon="6.15192080"><ele></ele><time>2015-8-31T14:17:54Z</time></trkpt>
<trkpt lat="46.42406082" lon="6.15201712"><ele></ele><time>2015-8-31T14:17:57Z</time></trkpt>
<trkpt lat="46.42424011" lon="6.15192080"><ele></ele><time>2015-8-31T14:18:0Z</time></trkpt>
<trkpt lat="46.42421341" lon="6.15180016"><ele></ele><time>2015-8-31T14:18:3Z</time></trkpt>
<trkpt lat="46.42400742" lon="6.15161180"><ele></ele><time>2015-8-31T14:18:6Z</time></trkpt>
<trkpt lat="46.42375565" lon="6.15142488"><ele></ele><time>2015-8-31T14:18:9Z</time></trkpt>
<trkpt lat="46.42355347" lon="6.15138102"><ele></ele><time>2015-8-31T14:18:12Z</time></trkpt>
<trkpt lat="46.42346573" lon="6.15133095"><ele></ele><time>2015-8-31T14:18:15Z</time></trkpt>
<trkpt lat="46.42342758" lon="6.15118313"><ele></ele><time>2015-8-31T14:18:18Z</time></trkpt>
<trkpt lat="46.42346573" lon="6.15084982"><ele></ele><time>2015-8-31T14:18:21Z</time></trkpt>
<trkpt lat="46.42345047" lon="6.15051317"><ele></ele><time>2015-8-31T14:18:24Z</time></trkpt>
<trkpt lat="46.42342758" lon="6.15045023"><ele></ele><time>2015-8-31T14:18:27Z</time></trkpt>
<trkpt lat="46.42342758" lon="6.15045500"><ele></ele><time>2015-8-31T14:18:30Z</time></trkpt>
<trkpt lat="46.42341995" lon="6.15046310"><ele></ele><time>2015-8-31T14:18:33Z</time></trkpt>
<trkpt lat="46.42342377" lon="6.15044880"><ele></ele><time>2015-8-31T14:18:36Z</time></trkpt>
<trkpt lat="46.42341995" lon="6.15042686"><ele></ele><time>2015-8-31T14:18:39Z</time></trkpt>
<trkpt lat="46.42327499" lon="6.15023708"><ele></ele><time>2015-8-31T14:18:42Z</time></trkpt>
<trkpt lat="46.42305756" lon="6.15013695"><ele></ele><time>2015-8-31T14:18:45Z</time></trkpt>
<trkpt lat="46.42296219" lon="6.15002489"><ele></ele><time>2015-8-31T14:18:48Z</time></trkpt>
<trkpt lat="46.42297363" lon="6.14967918"><ele></ele><time>2015-8-31T14:18:51Z</time></trkpt>
<trkpt lat="46.42307663" lon="6.14940214"><ele></ele><time>2015-8-31T14:18:54Z</time></trkpt>
<trkpt lat="46.42311478" lon="6.14911079"><ele></ele><time>2015-8-31T14:18:57Z</time></trkpt>
<trkpt lat="46.42311478" lon="6.14884710"><ele></ele><time>2015-8-31T14:19:0Z</time></trkpt>
<trkpt lat="46.42303848" lon="6.14853382"><ele></ele><time>2015-8-31T14:19:3Z</time></trkpt>
<trkpt lat="46.42300415" lon="6.14836788"><ele></ele><time>2015-8-31T14:19:6Z</time></trkpt>
<trkpt lat="46.42302322" lon="6.14819908"><ele></ele><time>2015-8-31T14:19:9Z</time></trkpt>
<trkpt lat="46.42300415" lon="6.14793110"><ele></ele><time>2015-8-31T14:19:12Z</time></trkpt>
<trkpt lat="46.42301559" lon="6.14779997"><ele></ele><time>2015-8-31T14:19:15Z</time></trkpt>
<trkpt lat="46.42308426" lon="6.14743996"><ele></ele><time>2015-8-31T14:19:18Z</time></trkpt>
<trkpt lat="46.42310715" lon="6.14727306"><ele></ele><time>2015-8-31T14:19:21Z</time></trkpt>
<trkpt lat="46.42312241" lon="6.14718199"><ele></ele><time>2015-8-31T14:19:24Z</time></trkpt>
<trkpt lat="46.42313385" lon="6.14703512"><ele></ele><time>2015-8-31T14:19:27Z</time></trkpt>
<trkpt lat="46.42319107" lon="6.14673615"><ele></ele><time>2015-8-31T14:19:30Z</time></trkpt>
<trkpt lat="46.42324448" lon="6.14635277"><ele></ele><time>2015-8-31T14:19:33Z</time></trkpt>
<trkpt lat="46.42328262" lon="6.14624786"><ele></ele><time>2015-8-31T14:19:36Z</time></trkpt>
<trkpt lat="46.42335129" lon="6.14582920"><ele></ele><time>2015-8-31T14:19:39Z</time></trkpt>
<trkpt lat="46.42337036" lon="6.14558077"><ele></ele><time>2015-8-31T14:19:42Z</time></trkpt>
<trkpt lat="46.42334747" lon="6.14535618"><ele></ele><time>2015-8-31T14:19:45Z</time></trkpt>
<trkpt lat="46.42334366" lon="6.14511919"><ele></ele><time>2015-8-31T14:19:48Z</time></trkpt>
<trkpt lat="46.42338181" lon="6.14502478"><ele></ele><time>2015-8-31T14:19:51Z</time></trkpt>
<trkpt lat="46.42350769" lon="6.14509678"><ele></ele><time>2015-8-31T14:19:54Z</time></trkpt>
<trkpt lat="46.42354584" lon="6.14517021"><ele></ele><time>2015-8-31T14:19:57Z</time></trkpt>
<trkpt lat="46.42359161" lon="6.14539623"><ele></ele><time>2015-8-31T14:20:0Z</time></trkpt>
<trkpt lat="46.42360687" lon="6.14569283"><ele></ele><time>2015-8-31T14:20:3Z</time></trkpt>
<trkpt lat="46.42360687" lon="6.14576578"><ele></ele><time>2015-8-31T14:20:6Z</time></trkpt>
<trkpt lat="46.42359924" lon="6.14585400"><ele></ele><time>2015-8-31T14:20:9Z</time></trkpt>
<trkpt lat="46.42359161" lon="6.14615488"><ele></ele><time>2015-8-31T14:20:12Z</time></trkpt>
<trkpt lat="46.42364502" lon="6.14654779"><ele></ele><time>2015-8-31T14:20:15Z</time></trkpt>
<trkpt lat="46.42369461" lon="6.14686823"><ele></ele><time>2015-8-31T14:20:18Z</time></trkpt>
<trkpt lat="46.42371368" lon="6.14696884"><ele></ele><time>2015-8-31T14:20:21Z</time></trkpt>
<trkpt lat="46.42379761" lon="6.14724112"><ele></ele><time>2015-8-31T14:20:24Z</time></trkpt>
<trkpt lat="46.42390823" lon="6.14747477"><ele></ele><time>2015-8-31T14:20:27Z</time></trkpt>
<trkpt lat="46.42401505" lon="6.14768887"><ele></ele><time>2015-8-31T14:20:30Z</time></trkpt>
<trkpt lat="46.42403793" lon="6.14774513"><ele></ele><time>2015-8-31T14:20:33Z</time></trkpt>
<trkpt lat="46.42412567" lon="6.14802694"><ele></ele><time>2015-8-31T14:20:36Z</time></trkpt>
<trkpt lat="46.42416763" lon="6.14813280"><ele></ele><time>2015-8-31T14:20:39Z</time></trkpt>
<trkpt lat="46.42435455" lon="6.14828777"><ele></ele><time>2015-8-31T14:20:42Z</time></trkpt>
<trkpt lat="46.42460251" lon="6.14844084"><ele></ele><time>2015-8-31T14:20:45Z</time></trkpt>
<trkpt lat="46.42474747" lon="6.14855909"><ele></ele><time>2015-8-31T14:20:48Z</time></trkpt>
<trkpt lat="46.42490005" lon="6.14874220"><ele></ele><time>2015-8-31T14:20:51Z</time></trkpt>
<trkpt lat="46.42493057" lon="6.14880991"><ele></ele><time>2015-8-31T14:20:54Z</time></trkpt>
<trkpt lat="46.42509079" lon="6.14905596"><ele></ele><time>2015-8-31T14:20:57Z</time></trkpt>
<trkpt lat="46.42530060" lon="6.14918280"><ele></ele><time>2015-8-31T14:21:0Z</time></trkpt>
<trkpt lat="46.42536926" lon="6.14919376"><ele></ele><time>2015-8-31T14:21:3Z</time></trkpt>
<trkpt lat="46.42560577" lon="6.14925814"><ele></ele><time>2015-8-31T14:21:6Z</time></trkpt>
<trkpt lat="46.42573166" lon="6.14931583"><ele></ele><time>2015-8-31T14:21:9Z</time></trkpt>
<trkpt lat="46.42588425" lon="6.14936590"><ele></ele><time>2015-8-31T14:21:12Z</time></trkpt>
<trkpt lat="46.42591858" lon="6.14938307"><ele></ele><time>2015-8-31T14:21:15Z</time></trkpt>
<trkpt lat="46.42613220" lon="6.14954615"><ele></ele><time>2015-8-31T14:21:18Z</time></trkpt>
<trkpt lat="46.42623901" lon="6.14960718"><ele></ele><time>2015-8-31T14:21:21Z</time></trkpt>
<trkpt lat="46.42625046" lon="6.14953804"><ele></ele><time>2015-8-31T14:21:24Z</time></trkpt>
<trkpt lat="46.42601013" lon="6.14930487"><ele></ele><time>2015-8-31T14:21:27Z</time></trkpt>
<trkpt lat="46.42572784" lon="6.14907885"><ele></ele><time>2015-8-31T14:21:30Z</time></trkpt>
<trkpt lat="46.42555237" lon="6.14889288"><ele></ele><time>2015-8-31T14:21:33Z</time></trkpt>
<trkpt lat="46.42538071" lon="6.14861488"><ele></ele><time>2015-8-31T14:21:36Z</time></trkpt>
<trkpt lat="46.42529678" lon="6.14824820"><ele></ele><time>2015-8-31T14:21:39Z</time></trkpt>
<trkpt lat="46.42518616" lon="6.14790201"><ele></ele><time>2015-8-31T14:21:42Z</time></trkpt>
<trkpt lat="46.42496490" lon="6.14749813"><ele></ele><time>2015-8-31T14:21:45Z</time></trkpt>
<trkpt lat="46.42488480" lon="6.14716911"><ele></ele><time>2015-8-31T14:21:48Z</time></trkpt>
<trkpt lat="46.42487335" lon="6.14701223"><ele></ele><time>2015-8-31T14:21:51Z</time></trkpt>
<trkpt lat="46.42486191" lon="6.14688015"><ele></ele><time>2015-8-31T14:21:54Z</time></trkpt>
<trkpt lat="46.42491150" lon="6.14642620"><ele></ele><time>2015-8-31T14:21:57Z</time></trkpt>
<trkpt lat="46.42519379" lon="6.14621496"><ele></ele><time>2015-8-31T14:22:0Z</time></trkpt>
<trkpt lat="46.42538452" lon="6.14594316"><ele></ele><time>2015-8-31T14:22:3Z</time></trkpt>
<trkpt lat="46.42552185" lon="6.14564419"><ele></ele><time>2015-8-31T14:22:6Z</time></trkpt>
<trkpt lat="46.42556763" lon="6.14553499"><ele></ele><time>2015-8-31T14:22:9Z</time></trkpt>
<trkpt lat="46.42559052" lon="6.14535999"><ele></ele><time>2015-8-31T14:22:12Z</time></trkpt>
<trkpt lat="46.42552948" lon="6.14497185"><ele></ele><time>2015-8-31T14:22:15Z</time></trkpt>
<trkpt lat="46.42542267" lon="6.14458609"><ele></ele><time>2015-8-31T14:22:18Z</time></trkpt>
<trkpt lat="46.42535782" lon="6.14407301"><ele></ele><time>2015-8-31T14:22:21Z</time></trkpt>
<trkpt lat="46.42544174" lon="6.14360619"><ele></ele><time>2015-8-31T14:22:24Z</time></trkpt>
<trkpt lat="46.42556381" lon="6.14308214"><ele></ele><time>2015-8-31T14:22:27Z</time></trkpt>
<trkpt lat="46.42566299" lon="6.14261818"><ele></ele><time>2015-8-31T14:22:30Z</time></trkpt>
<trkpt lat="46.42571640" lon="6.14230108"><ele></ele><time>2015-8-31T14:22:33Z</time></trkpt>
<trkpt lat="46.42579651" lon="6.14201212"><ele></ele><time>2015-8-31T14:22:36Z</time></trkpt>
<trkpt lat="46.42592621" lon="6.14163208"><ele></ele><time>2015-8-31T14:22:39Z</time></trkpt>
<trkpt lat="46.42601395" lon="6.14129591"><ele></ele><time>2015-8-31T14:22:42Z</time></trkpt>
<trkpt lat="46.42610168" lon="6.14097023"><ele></ele><time>2015-8-31T14:22:45Z</time></trkpt>
<trkpt lat="46.42610168" lon="6.14071989"><ele></ele><time>2015-8-31T14:22:48Z</time></trkpt>
<trkpt lat="46.42617416" lon="6.14059019"><ele></ele><time>2015-8-31T14:22:51Z</time></trkpt>
<trkpt lat="46.42619324" lon="6.14059877"><ele></ele><time>2015-8-31T14:22:54Z</time></trkpt>
<trkpt lat="46.42626190" lon="6.14090395"><ele></ele><time>2015-8-31T14:22:57Z</time></trkpt>
<trkpt lat="46.42643738" lon="6.14121008"><ele></ele><time>2015-8-31T14:23:0Z</time></trkpt>
<trkpt lat="46.42645645" lon="6.14164495"><ele></ele><time>2015-8-31T14:23:3Z</time></trkpt>
<trkpt lat="46.42650604" lon="6.14231205"><ele></ele><time>2015-8-31T14:23:6Z</time></trkpt>
<trkpt lat="46.42647171" lon="6.14303684"><ele></ele><time>2015-8-31T14:23:9Z</time></trkpt>
<trkpt lat="46.42648315" lon="6.14365578"><ele></ele><time>2015-8-31T14:23:12Z</time></trkpt>
<trkpt lat="46.42670059" lon="6.14415503"><ele></ele><time>2015-8-31T14:23:15Z</time></trkpt>
<trkpt lat="46.42718887" lon="6.14498091"><ele></ele><time>2015-8-31T14:23:18Z</time></trkpt>
<trkpt lat="46.42753983" lon="6.14532804"><ele></ele><time>2015-8-31T14:23:21Z</time></trkpt>
<trkpt lat="46.42788315" lon="6.14542580"><ele></ele><time>2015-8-31T14:23:24Z</time></trkpt>
<trkpt lat="46.42825699" lon="6.14559317"><ele></ele><time>2015-8-31T14:23:27Z</time></trkpt>
<trkpt lat="46.42855835" lon="6.14566708"><ele></ele><time>2015-8-31T14:23:30Z</time></trkpt>
<trkpt lat="46.42860031" lon="6.14567280"><ele></ele><time>2015-8-31T14:23:33Z</time></trkpt>
<trkpt lat="46.42868423" lon="6.14572906"><ele></ele><time>2015-8-31T14:23:36Z</time></trkpt>
<trkpt lat="46.42900467" lon="6.14584017"><ele></ele><time>2015-8-31T14:23:39Z</time></trkpt>
<trkpt lat="46.42932510" lon="6.14571190"><ele></ele><time>2015-8-31T14:23:42Z</time></trkpt>
<trkpt lat="46.42965317" lon="6.14541388"><ele></ele><time>2015-8-31T14:23:45Z</time></trkpt>
<trkpt lat="46.43006134" lon="6.14513302"><ele></ele><time>2015-8-31T14:23:48Z</time></trkpt>
<trkpt lat="46.43046570" lon="6.14503193"><ele></ele><time>2015-8-31T14:23:51Z</time></trkpt>
<trkpt lat="46.43099213" lon="6.14497900"><ele></ele><time>2015-8-31T14:23:54Z</time></trkpt>
<trkpt lat="46.43118668" lon="6.14492989"><ele></ele><time>2015-8-31T14:23:57Z</time></trkpt>
<trkpt lat="46.43118668" lon="6.14477921"><ele></ele><time>2015-8-31T14:24:0Z</time></trkpt>
<trkpt lat="46.43082428" lon="6.14475393"><ele></ele><time>2015-8-31T14:24:3Z</time></trkpt>
<trkpt lat="46.43043518" lon="6.14462709"><ele></ele><time>2015-8-31T14:24:6Z</time></trkpt>
<trkpt lat="46.42995071" lon="6.14436722"><ele></ele><time>2015-8-31T14:24:9Z</time></trkpt>
<trkpt lat="46.42961121" lon="6.14423704"><ele></ele><time>2015-8-31T14:24:12Z</time></trkpt>
<trkpt lat="46.42911530" lon="6.14414692"><ele></ele><time>2015-8-31T14:24:15Z</time></trkpt>
<trkpt lat="46.42877197" lon="6.14388800"><ele></ele><time>2015-8-31T14:24:18Z</time></trkpt>
<trkpt lat="46.42856598" lon="6.14361715"><ele></ele><time>2015-8-31T14:24:21Z</time></trkpt>
<trkpt lat="46.42831421" lon="6.14321184"><ele></ele><time>2015-8-31T14:24:24Z</time></trkpt>
<trkpt lat="46.42824554" lon="6.14278412"><ele></ele><time>2015-8-31T14:24:27Z</time></trkpt>
<trkpt lat="46.42822647" lon="6.14240408"><ele></ele><time>2015-8-31T14:24:30Z</time></trkpt>
<trkpt lat="46.42827988" lon="6.14202404"><ele></ele><time>2015-8-31T14:24:33Z</time></trkpt>
<trkpt lat="46.42835236" lon="6.14173508"><ele></ele><time>2015-8-31T14:24:36Z</time></trkpt>
<trkpt lat="46.42839050" lon="6.14162207"><ele></ele><time>2015-8-31T14:24:39Z</time></trkpt>
<trkpt lat="46.42857361" lon="6.14129019"><ele></ele><time>2015-8-31T14:24:42Z</time></trkpt>
<trkpt lat="46.42868423" lon="6.14087391"><ele></ele><time>2015-8-31T14:24:45Z</time></trkpt>
<trkpt lat="46.42872238" lon="6.14051723"><ele></ele><time>2015-8-31T14:24:48Z</time></trkpt>
<trkpt lat="46.42872620" lon="6.14035797"><ele></ele><time>2015-8-31T14:24:51Z</time></trkpt>
<trkpt lat="46.42883682" lon="6.13987589"><ele></ele><time>2015-8-31T14:24:54Z</time></trkpt>
<trkpt lat="46.42889786" lon="6.13949490"><ele></ele><time>2015-8-31T14:24:57Z</time></trkpt>
<trkpt lat="46.42893600" lon="6.13900900"><ele></ele><time>2015-8-31T14:25:0Z</time></trkpt>
<trkpt lat="46.42895889" lon="6.13866711"><ele></ele><time>2015-8-31T14:25:3Z</time></trkpt>
<trkpt lat="46.42900467" lon="6.13833714"><ele></ele><time>2015-8-31T14:25:6Z</time></trkpt>
<trkpt lat="46.42885971" lon="6.13796091"><ele></ele><time>2015-8-31T14:25:9Z</time></trkpt>
<trkpt lat="46.42870331" lon="6.13756704"><ele></ele><time>2015-8-31T14:25:12Z</time></trkpt>
<trkpt lat="46.42855835" lon="6.13716316"><ele></ele><time>2015-8-31T14:25:15Z</time></trkpt>
<trkpt lat="46.42844772" lon="6.13684702"><ele></ele><time>2015-8-31T14:25:18Z</time></trkpt>
<trkpt lat="46.42832947" lon="6.13650417"><ele></ele><time>2015-8-31T14:25:21Z</time></trkpt>
<trkpt lat="46.42826080" lon="6.13638401"><ele></ele><time>2015-8-31T14:25:24Z</time></trkpt>
<trkpt lat="46.42807007" lon="6.13603115"><ele></ele><time>2015-8-31T14:25:27Z</time></trkpt>
<trkpt lat="46.42782974" lon="6.13577414"><ele></ele><time>2015-8-31T14:25:30Z</time></trkpt>
<trkpt lat="46.42757797" lon="6.13532019"><ele></ele><time>2015-8-31T14:25:33Z</time></trkpt>
<trkpt lat="46.42735672" lon="6.13489914"><ele></ele><time>2015-8-31T14:25:36Z</time></trkpt>
<trkpt lat="46.42717743" lon="6.13453388"><ele></ele><time>2015-8-31T14:25:39Z</time></trkpt>
<trkpt lat="46.42694855" lon="6.13435411"><ele></ele><time>2015-8-31T14:25:42Z</time></trkpt>
<trkpt lat="46.42668533" lon="6.13423586"><ele></ele><time>2015-8-31T14:25:45Z</time></trkpt>
<trkpt lat="46.42638016" lon="6.13400507"><ele></ele><time>2015-8-31T14:25:48Z</time></trkpt>
<trkpt lat="46.42596054" lon="6.13375092"><ele></ele><time>2015-8-31T14:25:51Z</time></trkpt>
<trkpt lat="46.42549515" lon="6.13371897"><ele></ele><time>2015-8-31T14:25:54Z</time></trkpt>
<trkpt lat="46.42498398" lon="6.13341904"><ele></ele><time>2015-8-31T14:25:57Z</time></trkpt>
<trkpt lat="46.42495346" lon="6.13333988"><ele></ele><time>2015-8-31T14:26:0Z</time></trkpt>
<trkpt lat="46.42499924" lon="6.13322496"><ele></ele><time>2015-8-31T14:26:3Z</time></trkpt>
<trkpt lat="46.42527008" lon="6.13304901"><ele></ele><time>2015-8-31T14:26:6Z</time></trkpt>
<trkpt lat="46.42527771" lon="6.13300705"><ele></ele><time>2015-8-31T14:26:9Z</time></trkpt>
<trkpt lat="46.42530060" lon="6.13293886"><ele></ele><time>2015-8-31T14:26:12Z</time></trkpt>
<trkpt lat="46.42523193" lon="6.13261700"><ele></ele><time>2015-8-31T14:26:15Z</time></trkpt>
<trkpt lat="46.42520142" lon="6.13249493"><ele></ele><time>2015-8-31T14:26:18Z</time></trkpt>
<trkpt lat="46.42516327" lon="6.13218212"><ele></ele><time>2015-8-31T14:26:21Z</time></trkpt>
<trkpt lat="46.42516708" lon="6.13206291"><ele></ele><time>2015-8-31T14:26:24Z</time></trkpt>
<trkpt lat="46.42518616" lon="6.13178778"><ele></ele><time>2015-8-31T14:26:27Z</time></trkpt>
<trkpt lat="46.42519760" lon="6.13153410"><ele></ele><time>2015-8-31T14:26:30Z</time></trkpt>
<trkpt lat="46.42519760" lon="6.13150501"><ele></ele><time>2015-8-31T14:26:33Z</time></trkpt>
<trkpt lat="46.42515945" lon="6.13117599"><ele></ele><time>2015-8-31T14:26:36Z</time></trkpt>
<trkpt lat="46.42516708" lon="6.13084221"><ele></ele><time>2015-8-31T14:26:39Z</time></trkpt>
<trkpt lat="46.42512131" lon="6.13062191"><ele></ele><time>2015-8-31T14:26:42Z</time></trkpt>
<trkpt lat="46.42507553" lon="6.13029909"><ele></ele><time>2015-8-31T14:26:45Z</time></trkpt>
<trkpt lat="46.42507172" lon="6.13001919"><ele></ele><time>2015-8-31T14:26:48Z</time></trkpt>
<trkpt lat="46.42515564" lon="6.12967491"><ele></ele><time>2015-8-31T14:26:51Z</time></trkpt>
<trkpt lat="46.42515945" lon="6.12939882"><ele></ele><time>2015-8-31T14:26:54Z</time></trkpt>
<trkpt lat="46.42516708" lon="6.12936783"><ele></ele><time>2015-8-31T14:26:57Z</time></trkpt>
<trkpt lat="46.42508698" lon="6.12907219"><ele></ele><time>2015-8-31T14:27:0Z</time></trkpt>
<trkpt lat="46.42504501" lon="6.12880898"><ele></ele><time>2015-8-31T14:27:3Z</time></trkpt>
<trkpt lat="46.42500687" lon="6.12864017"><ele></ele><time>2015-8-31T14:27:6Z</time></trkpt>
<trkpt lat="46.42501068" lon="6.12856388"><ele></ele><time>2015-8-31T14:27:9Z</time></trkpt>
<trkpt lat="46.42501831" lon="6.12848091"><ele></ele><time>2015-8-31T14:27:12Z</time></trkpt>
<trkpt lat="46.42498779" lon="6.12808800"><ele></ele><time>2015-8-31T14:27:15Z</time></trkpt>
<trkpt lat="46.42485046" lon="6.12775707"><ele></ele><time>2015-8-31T14:27:18Z</time></trkpt>
<trkpt lat="46.42473221" lon="6.12757683"><ele></ele><time>2015-8-31T14:27:21Z</time></trkpt>
<trkpt lat="46.42469025" lon="6.12750578"><ele></ele><time>2015-8-31T14:27:24Z</time></trkpt>
<trkpt lat="46.42466354" lon="6.12746191"><ele></ele><time>2015-8-31T14:27:27Z</time></trkpt>
<trkpt lat="46.42454910" lon="6.12733221"><ele></ele><time>2015-8-31T14:27:30Z</time></trkpt>
<trkpt lat="46.42443085" lon="6.12712622"><ele></ele><time>2015-8-31T14:27:33Z</time></trkpt>
<trkpt lat="46.42437744" lon="6.12704706"><ele></ele><time>2015-8-31T14:27:36Z</time></trkpt>
<trkpt lat="46.42427063" lon="6.12681484"><ele></ele><time>2015-8-31T14:27:39Z</time></trkpt>
<trkpt lat="46.42416382" lon="6.12662077"><ele></ele><time>2015-8-31T14:27:42Z</time></trkpt>
<trkpt lat="46.42414856" lon="6.12651110"><ele></ele><time>2015-8-31T14:27:45Z</time></trkpt>
<trkpt lat="46.42406464" lon="6.12627411"><ele></ele><time>2015-8-31T14:27:48Z</time></trkpt>
<trkpt lat="46.42399979" lon="6.12604904"><ele></ele><time>2015-8-31T14:27:51Z</time></trkpt>
<trkpt lat="46.42399979" lon="6.12601805"><ele></ele><time>2015-8-31T14:27:54Z</time></trkpt>
<trkpt lat="46.42401123" lon="6.12586498"><ele></ele><time>2015-8-31T14:27:57Z</time></trkpt>
<trkpt lat="46.42418289" lon="6.12573290"><ele></ele><time>2015-8-31T14:28:0Z</time></trkpt>
<trkpt lat="46.42423248" lon="6.12572193"><ele></ele><time>2015-8-31T14:28:3Z</time></trkpt>
<trkpt lat="46.42434311" lon="6.12579012"><ele></ele><time>2015-8-31T14:28:6Z</time></trkpt>
<trkpt lat="46.42443085" lon="6.12589121"><ele></ele><time>2015-8-31T14:28:9Z</time></trkpt>
<trkpt lat="46.42454147" lon="6.12600708"><ele></ele><time>2015-8-31T14:28:12Z</time></trkpt>
<trkpt lat="46.42456055" lon="6.12603283"><ele></ele><time>2015-8-31T14:28:15Z</time></trkpt>
<trkpt lat="46.42471313" lon="6.12624788"><ele></ele><time>2015-8-31T14:28:18Z</time></trkpt>
<trkpt lat="46.42483139" lon="6.12630606"><ele></ele><time>2015-8-31T14:28:21Z</time></trkpt>
<trkpt lat="46.42505264" lon="6.12637186"><ele></ele><time>2015-8-31T14:28:24Z</time></trkpt>
<trkpt lat="46.42512131" lon="6.12637997"><ele></ele><time>2015-8-31T14:28:27Z</time></trkpt>
<trkpt lat="46.42520142" lon="6.12637711"><ele></ele><time>2015-8-31T14:28:30Z</time></trkpt>
<trkpt lat="46.42538834" lon="6.12635183"><ele></ele><time>2015-8-31T14:28:33Z</time></trkpt>
<trkpt lat="46.42558670" lon="6.12633181"><ele></ele><time>2015-8-31T14:28:36Z</time></trkpt>
<trkpt lat="46.42579651" lon="6.12645197"><ele></ele><time>2015-8-31T14:28:39Z</time></trkpt>
<trkpt lat="46.42600632" lon="6.12660885"><ele></ele><time>2015-8-31T14:28:42Z</time></trkpt>
<trkpt lat="46.42625427" lon="6.12675810"><ele></ele><time>2015-8-31T14:28:45Z</time></trkpt>
<trkpt lat="46.42637634" lon="6.12676477"><ele></ele><time>2015-8-31T14:28:48Z</time></trkpt>
<trkpt lat="46.42643738" lon="6.12689781"><ele></ele><time>2015-8-31T14:28:51Z</time></trkpt>
<trkpt lat="46.42667007" lon="6.12712097"><ele></ele><time>2015-8-31T14:28:54Z</time></trkpt>
<trkpt lat="46.42669678" lon="6.12713385"><ele></ele><time>2015-8-31T14:28:57Z</time></trkpt>
<trkpt lat="46.42676544" lon="6.12721109"><ele></ele><time>2015-8-31T14:29:0Z</time></trkpt>
<trkpt lat="46.42683792" lon="6.12727499"><ele></ele><time>2015-8-31T14:29:3Z</time></trkpt>
<trkpt lat="46.42686844" lon="6.12727690"><ele></ele><time>2015-8-31T14:29:6Z</time></trkpt>
<trkpt lat="46.42692947" lon="6.12722921"><ele></ele><time>2015-8-31T14:29:9Z</time></trkpt>
<trkpt lat="46.42709732" lon="6.12710905"><ele></ele><time>2015-8-31T14:29:12Z</time></trkpt>
<trkpt lat="46.42723465" lon="6.12707376"><ele></ele><time>2015-8-31T14:29:15Z</time></trkpt>
<trkpt lat="46.42744827" lon="6.12717104"><ele></ele><time>2015-8-31T14:29:18Z</time></trkpt>
<trkpt lat="46.42755127" lon="6.12727785"><ele></ele><time>2015-8-31T14:29:21Z</time></trkpt>
<trkpt lat="46.42760849" lon="6.12734318"><ele></ele><time>2015-8-31T14:29:24Z</time></trkpt>
<trkpt lat="46.42772293" lon="6.12735081"><ele></ele><time>2015-8-31T14:29:27Z</time></trkpt>
<trkpt lat="46.42779541" lon="6.12744999"><ele></ele><time>2015-8-31T14:29:30Z</time></trkpt>
<trkpt lat="46.42789078" lon="6.12754488"><ele></ele><time>2015-8-31T14:29:33Z</time></trkpt>
<trkpt lat="46.42798615" lon="6.12766600"><ele></ele><time>2015-8-31T14:29:36Z</time></trkpt>
<trkpt lat="46.42810440" lon="6.12777090"><ele></ele><time>2015-8-31T14:29:39Z</time></trkpt>
<trkpt lat="46.42826462" lon="6.12787104"><ele></ele><time>2015-8-31T14:29:42Z</time></trkpt>
<trkpt lat="46.42827988" lon="6.12789106"><ele></ele><time>2015-8-31T14:29:45Z</time></trkpt>
<trkpt lat="46.42830276" lon="6.12791586"><ele></ele><time>2015-8-31T14:29:48Z</time></trkpt>
<trkpt lat="46.42835617" lon="6.12799406"><ele></ele><time>2015-8-31T14:29:51Z</time></trkpt>
<trkpt lat="46.42847061" lon="6.12809896"><ele></ele><time>2015-8-31T14:29:54Z</time></trkpt>
<trkpt lat="46.42866135" lon="6.12824392"><ele></ele><time>2015-8-31T14:29:57Z</time></trkpt>
<trkpt lat="46.42883301" lon="6.12848997"><ele></ele><time>2015-8-31T14:30:0Z</time></trkpt>
<trkpt lat="46.42903137" lon="6.12885094"><ele></ele><time>2015-8-31T14:30:3Z</time></trkpt>
<trkpt lat="46.42922974" lon="6.12908220"><ele></ele><time>2015-8-31T14:30:6Z</time></trkpt>
<trkpt lat="46.42932892" lon="6.12922096"><ele></ele><time>2015-8-31T14:30:9Z</time></trkpt>
<trkpt lat="46.42946625" lon="6.12932205"><ele></ele><time>2015-8-31T14:30:12Z</time></trkpt>
<trkpt lat="46.42951965" lon="6.12933588"><ele></ele><time>2015-8-31T14:30:15Z</time></trkpt>
<trkpt lat="46.42957687" lon="6.12932396"><ele></ele><time>2015-8-31T14:30:18Z</time></trkpt>
<trkpt lat="46.42958832" lon="6.12933207"><ele></ele><time>2015-8-31T14:30:21Z</time></trkpt>
<trkpt lat="46.42959213" lon="6.12934923"><ele></ele><time>2015-8-31T14:30:24Z</time></trkpt>
<trkpt lat="46.42978668" lon="6.12948608"><ele></ele><time>2015-8-31T14:30:27Z</time></trkpt>
<trkpt lat="46.42985535" lon="6.12955904"><ele></ele><time>2015-8-31T14:30:30Z</time></trkpt>
<trkpt lat="46.43003082" lon="6.12948418"><ele></ele><time>2015-8-31T14:30:33Z</time></trkpt>
<trkpt lat="46.43019485" lon="6.12914181"><ele></ele><time>2015-8-31T14:30:36Z</time></trkpt>
<trkpt lat="46.43035507" lon="6.12884998"><ele></ele><time>2015-8-31T14:30:39Z</time></trkpt>
<trkpt lat="46.43047714" lon="6.12865877"><ele></ele><time>2015-8-31T14:30:42Z</time></trkpt>
<trkpt lat="46.43055725" lon="6.12864113"><ele></ele><time>2015-8-31T14:30:45Z</time></trkpt>
<trkpt lat="46.43060303" lon="6.12865305"><ele></ele><time>2015-8-31T14:30:48Z</time></trkpt>
<trkpt lat="46.43087769" lon="6.12886190"><ele></ele><time>2015-8-31T14:30:51Z</time></trkpt>
<trkpt lat="46.43117142" lon="6.12879705"><ele></ele><time>2015-8-31T14:30:54Z</time></trkpt>
<trkpt lat="46.43127441" lon="6.12868881"><ele></ele><time>2015-8-31T14:30:57Z</time></trkpt>
<trkpt lat="46.43124390" lon="6.12828684"><ele></ele><time>2015-8-31T14:31:0Z</time></trkpt>
<trkpt lat="46.43115616" lon="6.12817383"><ele></ele><time>2015-8-31T14:31:3Z</time></trkpt>
<trkpt lat="46.43104553" lon="6.12812090"><ele></ele><time>2015-8-31T14:31:6Z</time></trkpt>
<trkpt lat="46.43093109" lon="6.12826777"><ele></ele><time>2015-8-31T14:31:9Z</time></trkpt>
<trkpt lat="46.43076706" lon="6.12823105"><ele></ele><time>2015-8-31T14:31:12Z</time></trkpt>
<trkpt lat="46.43074417" lon="6.12815714"><ele></ele><time>2015-8-31T14:31:15Z</time></trkpt>
<trkpt lat="46.43066025" lon="6.12815523"><ele></ele><time>2015-8-31T14:31:18Z</time></trkpt>
<trkpt lat="46.43060684" lon="6.12812614"><ele></ele><time>2015-8-31T14:31:21Z</time></trkpt>
<trkpt lat="46.43059540" lon="6.12811184"><ele></ele><time>2015-8-31T14:31:24Z</time></trkpt>
</trkseg></trk></gpx>